<?xml version="1.0" encoding="UTF-8" standalone="no" ?>
<gpx xmlns="http://www.topografix.com/GPX/1/1" creator="MapSource 6.16.3" version="1.1" xmlns:xsi="http://www.w3.org/2001/XMLSchema-instance" xsi:schemaLocation="http://www.topografix.com/GPX/1/1 http://www.topografix.com/GPX/1/1/gpx.xsd">

  <metadata>
    <link href="http://www.garmin.com">
      <text>Garmin International</text>
    </link>
    <time>2012-06-14T06:42:49Z</time>
    <bounds maxlat="38.521140720695257" maxlon="-109.70693436451256" minlat="38.488869974389672" minlon="-109.73626515828073"/>
  </metadata>

  <trk>
    <name>Untitled</name>
    <extensions>
      <gpxx:TrackExtension xmlns:gpxx="http://www.garmin.com/xmlschemas/GpxExtensions/v3">
        <gpxx:DisplayColor>Cyan</gpxx:DisplayColor>
      </gpxx:TrackExtension>
    </extensions>
    <trkseg>
      <trkpt lat="38.48906384781003" lon="-109.73626121878624">
        <ele>1806</ele>
        <time>2012-05-17T23:37:12Z</time>
      </trkpt>
      <trkpt lat="38.489206340163946" lon="-109.73626515828073">
        <ele>1805.4000244140625</ele>
        <time>2012-05-17T23:37:17Z</time>
      </trkpt>
      <trkpt lat="38.489329721778631" lon="-109.73614571616054">
        <ele>1805</ele>
        <time>2012-05-17T23:37:21Z</time>
      </trkpt>
      <trkpt lat="38.489464754238725" lon="-109.73612450994551">
        <ele>1803</ele>
        <time>2012-05-17T23:37:25Z</time>
      </trkpt>
      <trkpt lat="38.489662567153573" lon="-109.73611663095653">
        <ele>1800.800048828125</ele>
        <time>2012-05-17T23:37:29Z</time>
      </trkpt>
      <trkpt lat="38.489765748381615" lon="-109.73608469590545">
        <ele>1800</ele>
        <time>2012-05-17T23:37:31Z</time>
      </trkpt>
      <trkpt lat="38.48984956741333" lon="-109.73600070923567">
        <ele>1799</ele>
        <time>2012-05-17T23:37:33Z</time>
      </trkpt>
      <trkpt lat="38.489941349253058" lon="-109.73594153299928">
        <ele>1798.5999755859375</ele>
        <time>2012-05-17T23:37:35Z</time>
      </trkpt>
      <trkpt lat="38.49008166231215" lon="-109.73591663874686">
        <ele>1798.199951171875</ele>
        <time>2012-05-17T23:37:38Z</time>
      </trkpt>
      <trkpt lat="38.490117536857724" lon="-109.73592326045036">
        <ele>1798.4000244140625</ele>
        <time>2012-05-17T23:37:41Z</time>
      </trkpt>
      <trkpt lat="38.490139581263065" lon="-109.73592116497457">
        <ele>1798.4000244140625</ele>
        <time>2012-05-17T23:37:46Z</time>
      </trkpt>
      <trkpt lat="38.490283330902457" lon="-109.73589601926506">
        <ele>1798.199951171875</ele>
        <time>2012-05-17T23:37:51Z</time>
      </trkpt>
      <trkpt lat="38.490467229858041" lon="-109.73588788881898">
        <ele>1798.199951171875</ele>
        <time>2012-05-17T23:37:56Z</time>
      </trkpt>
      <trkpt lat="38.490540739148855" lon="-109.73583659157157">
        <ele>1798.199951171875</ele>
        <time>2012-05-17T23:37:58Z</time>
      </trkpt>
      <trkpt lat="38.490582481026649" lon="-109.73580608144403">
        <ele>1798.199951171875</ele>
        <time>2012-05-17T23:37:59Z</time>
      </trkpt>
      <trkpt lat="38.490722458809614" lon="-109.73570977337658">
        <ele>1798.5999755859375</ele>
        <time>2012-05-17T23:38:02Z</time>
      </trkpt>
      <trkpt lat="38.490856904536486" lon="-109.73548773676157">
        <ele>1798.800048828125</ele>
        <time>2012-05-17T23:38:06Z</time>
      </trkpt>
      <trkpt lat="38.490997133776546" lon="-109.73548572510481">
        <ele>1799.199951171875</ele>
        <time>2012-05-17T23:38:09Z</time>
      </trkpt>
      <trkpt lat="38.491185978055" lon="-109.7353876568377">
        <ele>1799.4000244140625</ele>
        <time>2012-05-17T23:38:14Z</time>
      </trkpt>
      <trkpt lat="38.491212045773864" lon="-109.73523904569447">
        <ele>1799.800048828125</ele>
        <time>2012-05-17T23:38:17Z</time>
      </trkpt>
      <trkpt lat="38.491289410740137" lon="-109.73521071486175">
        <ele>1799.800048828125</ele>
        <time>2012-05-17T23:38:20Z</time>
      </trkpt>
      <trkpt lat="38.491306090727448" lon="-109.73521180450916">
        <ele>1800</ele>
        <time>2012-05-17T23:38:21Z</time>
      </trkpt>
      <trkpt lat="38.491344144567847" lon="-109.73517148755491">
        <ele>1800</ele>
        <time>2012-05-17T23:38:23Z</time>
      </trkpt>
      <trkpt lat="38.491352358832955" lon="-109.73514718003571">
        <ele>1800</ele>
        <time>2012-05-17T23:38:24Z</time>
      </trkpt>
      <trkpt lat="38.491366356611252" lon="-109.73509973846376">
        <ele>1800.199951171875</ele>
        <time>2012-05-17T23:38:29Z</time>
      </trkpt>
      <trkpt lat="38.491348084062338" lon="-109.73510066047311">
        <ele>1800.199951171875</ele>
        <time>2012-05-17T23:38:58Z</time>
      </trkpt>
      <trkpt lat="38.491328973323107" lon="-109.73513972014189">
        <ele>1800</ele>
        <time>2012-05-17T23:40:01Z</time>
      </trkpt>
      <trkpt lat="38.491332493722439" lon="-109.73514617420733">
        <ele>1800</ele>
        <time>2012-05-17T23:40:07Z</time>
      </trkpt>
      <trkpt lat="38.491344982758164" lon="-109.73510921001434">
        <ele>1800</ele>
        <time>2012-05-17T23:44:47Z</time>
      </trkpt>
      <trkpt lat="38.491349760442972" lon="-109.73506243899465">
        <ele>1800.199951171875</ele>
        <time>2012-05-17T23:44:52Z</time>
      </trkpt>
      <trkpt lat="38.49140097387135" lon="-109.73501558415592">
        <ele>1800.199951171875</ele>
        <time>2012-05-17T23:44:57Z</time>
      </trkpt>
      <trkpt lat="38.491488983854651" lon="-109.73490351811051">
        <ele>1800.4000244140625</ele>
        <time>2012-05-17T23:45:03Z</time>
      </trkpt>
      <trkpt lat="38.491578418761492" lon="-109.73478038795292">
        <ele>1800.800048828125</ele>
        <time>2012-05-17T23:45:09Z</time>
      </trkpt>
      <trkpt lat="38.491750918328762" lon="-109.7347972355783">
        <ele>1801</ele>
        <time>2012-05-17T23:45:15Z</time>
      </trkpt>
      <trkpt lat="38.491909671574831" lon="-109.73483101464808">
        <ele>1801.199951171875</ele>
        <time>2012-05-17T23:45:20Z</time>
      </trkpt>
      <trkpt lat="38.49193699657917" lon="-109.73480712622404">
        <ele>1801.4000244140625</ele>
        <time>2012-05-17T23:45:21Z</time>
      </trkpt>
      <trkpt lat="38.492038669064641" lon="-109.73470411263406">
        <ele>1801.800048828125</ele>
        <time>2012-05-17T23:45:25Z</time>
      </trkpt>
      <trkpt lat="38.492081835865974" lon="-109.73466102965176">
        <ele>1802</ele>
        <time>2012-05-17T23:45:27Z</time>
      </trkpt>
      <trkpt lat="38.492139922454953" lon="-109.73459145985544">
        <ele>1802.199951171875</ele>
        <time>2012-05-17T23:45:30Z</time>
      </trkpt>
      <trkpt lat="38.49219549447298" lon="-109.73443446680903">
        <ele>1802.800048828125</ele>
        <time>2012-05-17T23:45:35Z</time>
      </trkpt>
      <trkpt lat="38.492185855284333" lon="-109.7343653999269">
        <ele>1803</ele>
        <time>2012-05-17T23:45:37Z</time>
      </trkpt>
      <trkpt lat="38.492161631584167" lon="-109.73430354148149">
        <ele>1803.199951171875</ele>
        <time>2012-05-17T23:45:39Z</time>
      </trkpt>
      <trkpt lat="38.492198344320059" lon="-109.73416683264077">
        <ele>1803.5999755859375</ele>
        <time>2012-05-17T23:45:43Z</time>
      </trkpt>
      <trkpt lat="38.492214353755116" lon="-109.7341407649219">
        <ele>1803.5999755859375</ele>
        <time>2012-05-17T23:45:44Z</time>
      </trkpt>
      <trkpt lat="38.492282330989838" lon="-109.73406775854528">
        <ele>1803.800048828125</ele>
        <time>2012-05-17T23:45:48Z</time>
      </trkpt>
      <trkpt lat="38.49232985638082" lon="-109.73394320346415">
        <ele>1804.199951171875</ele>
        <time>2012-05-17T23:45:52Z</time>
      </trkpt>
      <trkpt lat="38.492423230782151" lon="-109.73386013880372">
        <ele>1804.4000244140625</ele>
        <time>2012-05-17T23:45:57Z</time>
      </trkpt>
      <trkpt lat="38.492515431717038" lon="-109.73374606110156">
        <ele>1804.800048828125</ele>
        <time>2012-05-17T23:46:02Z</time>
      </trkpt>
      <trkpt lat="38.492625234648585" lon="-109.73356015048921">
        <ele>1805.4000244140625</ele>
        <time>2012-05-17T23:46:09Z</time>
      </trkpt>
      <trkpt lat="38.492688853293657" lon="-109.73334993235767">
        <ele>1805.800048828125</ele>
        <time>2012-05-17T23:46:16Z</time>
      </trkpt>
      <trkpt lat="38.492803182452917" lon="-109.73317433148623">
        <ele>1806</ele>
        <time>2012-05-17T23:46:23Z</time>
      </trkpt>
      <trkpt lat="38.492948105558753" lon="-109.73303804174066">
        <ele>1806</ele>
        <time>2012-05-17T23:46:31Z</time>
      </trkpt>
      <trkpt lat="38.492993535473943" lon="-109.73293117247522">
        <ele>1806</ele>
        <time>2012-05-17T23:46:35Z</time>
      </trkpt>
      <trkpt lat="38.49300074391067" lon="-109.73287107422948">
        <ele>1806</ele>
        <time>2012-05-17T23:46:37Z</time>
      </trkpt>
      <trkpt lat="38.492998648434877" lon="-109.73281734623015">
        <ele>1806</ele>
        <time>2012-05-17T23:46:39Z</time>
      </trkpt>
      <trkpt lat="38.493015663698316" lon="-109.73274853080511">
        <ele>1806</ele>
        <time>2012-05-17T23:46:42Z</time>
      </trkpt>
      <trkpt lat="38.4930320084095" lon="-109.73267938010395">
        <ele>1806</ele>
        <time>2012-05-17T23:46:49Z</time>
      </trkpt>
      <trkpt lat="38.493032259866595" lon="-109.7326404042542">
        <ele>1806</ele>
        <time>2012-05-17T23:47:13Z</time>
      </trkpt>
      <trkpt lat="38.493036953732371" lon="-109.73261207342148">
        <ele>1806</ele>
        <time>2012-05-17T23:47:14Z</time>
      </trkpt>
      <trkpt lat="38.493080623447895" lon="-109.73247838206589">
        <ele>1805.800048828125</ele>
        <time>2012-05-17T23:47:19Z</time>
      </trkpt>
      <trkpt lat="38.493165699765086" lon="-109.73228006623685">
        <ele>1805</ele>
        <time>2012-05-17T23:47:26Z</time>
      </trkpt>
      <trkpt lat="38.493174919858575" lon="-109.73208443261683">
        <ele>1804.800048828125</ele>
        <time>2012-05-17T23:47:29Z</time>
      </trkpt>
      <trkpt lat="38.49324650131166" lon="-109.7318147867918">
        <ele>1803.4000244140625</ele>
        <time>2012-05-17T23:47:33Z</time>
      </trkpt>
      <trkpt lat="38.49315564148128" lon="-109.73164706490934">
        <ele>1802.199951171875</ele>
        <time>2012-05-17T23:47:36Z</time>
      </trkpt>
      <trkpt lat="38.49310384131968" lon="-109.73139560781419">
        <ele>1800.4000244140625</ele>
        <time>2012-05-17T23:47:40Z</time>
      </trkpt>
      <trkpt lat="38.493142062798142" lon="-109.73113057203591">
        <ele>1799</ele>
        <time>2012-05-17T23:47:44Z</time>
      </trkpt>
      <trkpt lat="38.493240550160408" lon="-109.73091783933342">
        <ele>1798.199951171875</ele>
        <time>2012-05-17T23:47:48Z</time>
      </trkpt>
      <trkpt lat="38.493255386129022" lon="-109.73086419515312">
        <ele>1797.800048828125</ele>
        <time>2012-05-17T23:47:49Z</time>
      </trkpt>
      <trkpt lat="38.493244238197803" lon="-109.73080661147833">
        <ele>1797.5999755859375</ele>
        <time>2012-05-17T23:47:50Z</time>
      </trkpt>
      <trkpt lat="38.493204424157739" lon="-109.73071047104895">
        <ele>1796.800048828125</ele>
        <time>2012-05-17T23:47:52Z</time>
      </trkpt>
      <trkpt lat="38.493228899315" lon="-109.73055926151574">
        <ele>1795.5999755859375</ele>
        <time>2012-05-17T23:47:55Z</time>
      </trkpt>
      <trkpt lat="38.493347251787782" lon="-109.73037879914045">
        <ele>1795.4000244140625</ele>
        <time>2012-05-17T23:48:00Z</time>
      </trkpt>
      <trkpt lat="38.493414307013154" lon="-109.73033890128136">
        <ele>1795.5999755859375</ele>
        <time>2012-05-17T23:48:02Z</time>
      </trkpt>
      <trkpt lat="38.493513548746705" lon="-109.73034309223294">
        <ele>1796</ele>
        <time>2012-05-17T23:48:05Z</time>
      </trkpt>
      <trkpt lat="38.493687892332673" lon="-109.73029229789972">
        <ele>1796.4000244140625</ele>
        <time>2012-05-17T23:48:10Z</time>
      </trkpt>
      <trkpt lat="38.493744302541018" lon="-109.73022582940757">
        <ele>1796.4000244140625</ele>
        <time>2012-05-17T23:48:12Z</time>
      </trkpt>
      <trkpt lat="38.493753857910633" lon="-109.73017461597919">
        <ele>1796.4000244140625</ele>
        <time>2012-05-17T23:48:13Z</time>
      </trkpt>
      <trkpt lat="38.493789061903954" lon="-109.72992810420692">
        <ele>1796.5999755859375</ele>
        <time>2012-05-17T23:48:18Z</time>
      </trkpt>
      <trkpt lat="38.493789816275239" lon="-109.72988342866302">
        <ele>1796.5999755859375</ele>
        <time>2012-05-17T23:48:21Z</time>
      </trkpt>
      <trkpt lat="38.493740279227495" lon="-109.72974588163197">
        <ele>1796.4000244140625</ele>
        <time>2012-05-17T23:48:25Z</time>
      </trkpt>
      <trkpt lat="38.493698872625828" lon="-109.72948528826237">
        <ele>1796.4000244140625</ele>
        <time>2012-05-17T23:48:31Z</time>
      </trkpt>
      <trkpt lat="38.49369753152132" lon="-109.72935897298157">
        <ele>1796.5999755859375</ele>
        <time>2012-05-17T23:48:35Z</time>
      </trkpt>
      <trkpt lat="38.493678169324994" lon="-109.7293611522764">
        <ele>1796.4000244140625</ele>
        <time>2012-05-17T23:48:36Z</time>
      </trkpt>
      <trkpt lat="38.493641288951039" lon="-109.72937087528408">
        <ele>1796.199951171875</ele>
        <time>2012-05-17T23:48:40Z</time>
      </trkpt>
      <trkpt lat="38.493623770773411" lon="-109.72940389998257">
        <ele>1796</ele>
        <time>2012-05-17T23:48:44Z</time>
      </trkpt>
      <trkpt lat="38.493603318929672" lon="-109.72942552529275">
        <ele>1795.800048828125</ele>
        <time>2012-05-17T23:48:46Z</time>
      </trkpt>
      <trkpt lat="38.493606839329004" lon="-109.72944187000394">
        <ele>1796</ele>
        <time>2012-05-17T23:48:48Z</time>
      </trkpt>
      <trkpt lat="38.493570042774081" lon="-109.7294629085809">
        <ele>1795.5999755859375</ele>
        <time>2012-05-17T23:48:52Z</time>
      </trkpt>
      <trkpt lat="38.493543136864901" lon="-109.72946709953249">
        <ele>1795.5999755859375</ele>
        <time>2012-05-17T23:48:55Z</time>
      </trkpt>
      <trkpt lat="38.493513632565737" lon="-109.7294576279819">
        <ele>1795.4000244140625</ele>
        <time>2012-05-17T23:48:58Z</time>
      </trkpt>
      <trkpt lat="38.493474572896957" lon="-109.72943390719593">
        <ele>1795.199951171875</ele>
        <time>2012-05-17T23:49:02Z</time>
      </trkpt>
      <trkpt lat="38.493451103568077" lon="-109.72940968349576">
        <ele>1795</ele>
        <time>2012-05-17T23:49:05Z</time>
      </trkpt>
      <trkpt lat="38.493432747200131" lon="-109.72938445396721">
        <ele>1795</ele>
        <time>2012-05-17T23:49:08Z</time>
      </trkpt>
      <trkpt lat="38.49338723346591" lon="-109.72933734767139">
        <ele>1794.800048828125</ele>
        <time>2012-05-17T23:49:14Z</time>
      </trkpt>
      <trkpt lat="38.49332076497376" lon="-109.72927968017757">
        <ele>1794.4000244140625</ele>
        <time>2012-05-17T23:49:22Z</time>
      </trkpt>
      <trkpt lat="38.49330760538578" lon="-109.72927498631179">
        <ele>1794.4000244140625</ele>
        <time>2012-05-17T23:49:28Z</time>
      </trkpt>
      <trkpt lat="38.493320345878601" lon="-109.72928554750979">
        <ele>1794.4000244140625</ele>
        <time>2012-05-17T23:49:47Z</time>
      </trkpt>
      <trkpt lat="38.493363680317998" lon="-109.72930549643934">
        <ele>1794.5999755859375</ele>
        <time>2012-05-17T23:50:04Z</time>
      </trkpt>
      <trkpt lat="38.493411792442203" lon="-109.7293471544981">
        <ele>1794.800048828125</ele>
        <time>2012-05-17T23:50:12Z</time>
      </trkpt>
      <trkpt lat="38.493467448279262" lon="-109.72939778119326">
        <ele>1795.199951171875</ele>
        <time>2012-05-17T23:50:21Z</time>
      </trkpt>
      <trkpt lat="38.493512207642198" lon="-109.72944329492748">
        <ele>1795.4000244140625</ele>
        <time>2012-05-17T23:50:28Z</time>
      </trkpt>
      <trkpt lat="38.493578676134348" lon="-109.72946207039058">
        <ele>1795.800048828125</ele>
        <time>2012-05-17T23:50:35Z</time>
      </trkpt>
      <trkpt lat="38.49361689761281" lon="-109.72942611202598">
        <ele>1796</ele>
        <time>2012-05-17T23:50:41Z</time>
      </trkpt>
      <trkpt lat="38.493624776601791" lon="-109.72941873595119">
        <ele>1796</ele>
        <time>2012-05-17T23:50:43Z</time>
      </trkpt>
      <trkpt lat="38.493653694167733" lon="-109.72940197214484">
        <ele>1796.199951171875</ele>
        <time>2012-05-17T23:50:47Z</time>
      </trkpt>
      <trkpt lat="38.493647910654545" lon="-109.72938738763332">
        <ele>1796.199951171875</ele>
        <time>2012-05-17T23:50:51Z</time>
      </trkpt>
      <trkpt lat="38.493645479902625" lon="-109.72939250059426">
        <ele>1796.199951171875</ele>
        <time>2012-05-17T23:50:58Z</time>
      </trkpt>
      <trkpt lat="38.49364816211164" lon="-109.72938747145236">
        <ele>1796.199951171875</ele>
        <time>2012-05-17T23:51:10Z</time>
      </trkpt>
      <trkpt lat="38.4936398640275" lon="-109.72938001155853">
        <ele>1796.199951171875</ele>
        <time>2012-05-17T23:51:15Z</time>
      </trkpt>
      <trkpt lat="38.493644641712308" lon="-109.7293992061168">
        <ele>1796.199951171875</ele>
        <time>2012-05-17T23:51:20Z</time>
      </trkpt>
      <trkpt lat="38.493694011121988" lon="-109.72938747145236">
        <ele>1796.4000244140625</ele>
        <time>2012-05-17T23:51:25Z</time>
      </trkpt>
      <trkpt lat="38.493752935901284" lon="-109.72935235127807">
        <ele>1796.800048828125</ele>
        <time>2012-05-17T23:51:34Z</time>
      </trkpt>
      <trkpt lat="38.493750337511301" lon="-109.72935453057289">
        <ele>1796.800048828125</ele>
        <time>2012-05-17T23:51:54Z</time>
      </trkpt>
      <trkpt lat="38.493796102702618" lon="-109.72929426468909">
        <ele>1797.199951171875</ele>
        <time>2012-05-17T23:53:09Z</time>
      </trkpt>
      <trkpt lat="38.493906827643514" lon="-109.72925118170679">
        <ele>1798.199951171875</ele>
        <time>2012-05-17T23:53:14Z</time>
      </trkpt>
      <trkpt lat="38.494007410481572" lon="-109.72915328107774">
        <ele>1799</ele>
        <time>2012-05-17T23:53:20Z</time>
      </trkpt>
      <trkpt lat="38.494145879521966" lon="-109.72907574847341">
        <ele>1800.5999755859375</ele>
        <time>2012-05-17T23:53:24Z</time>
      </trkpt>
      <trkpt lat="38.494278900325298" lon="-109.7288965433836">
        <ele>1801.800048828125</ele>
        <time>2012-05-17T23:53:28Z</time>
      </trkpt>
      <trkpt lat="38.494329191744328" lon="-109.7288875747472">
        <ele>1802.199951171875</ele>
        <time>2012-05-17T23:53:29Z</time>
      </trkpt>
      <trkpt lat="38.494406053796411" lon="-109.7288827970624">
        <ele>1802.5999755859375</ele>
        <time>2012-05-17T23:53:31Z</time>
      </trkpt>
      <trkpt lat="38.494498338550329" lon="-109.72887030802667">
        <ele>1803.199951171875</ele>
        <time>2012-05-17T23:53:34Z</time>
      </trkpt>
      <trkpt lat="38.494570506736636" lon="-109.72886955365539">
        <ele>1803.5999755859375</ele>
        <time>2012-05-17T23:53:36Z</time>
      </trkpt>
      <trkpt lat="38.49469967186451" lon="-109.7288360260427">
        <ele>1804</ele>
        <time>2012-05-17T23:53:40Z</time>
      </trkpt>
      <trkpt lat="38.494795560836792" lon="-109.72870719619095">
        <ele>1804.199951171875</ele>
        <time>2012-05-17T23:53:45Z</time>
      </trkpt>
      <trkpt lat="38.494834033772349" lon="-109.72850535996258">
        <ele>1804.199951171875</ele>
        <time>2012-05-17T23:53:50Z</time>
      </trkpt>
      <trkpt lat="38.494827914983034" lon="-109.7282797191292">
        <ele>1804.199951171875</ele>
        <time>2012-05-17T23:53:55Z</time>
      </trkpt>
      <trkpt lat="38.494793046265841" lon="-109.72811811603606">
        <ele>1804.4000244140625</ele>
        <time>2012-05-17T23:53:59Z</time>
      </trkpt>
      <trkpt lat="38.494771923869848" lon="-109.72808710299432">
        <ele>1804.4000244140625</ele>
        <time>2012-05-17T23:54:00Z</time>
      </trkpt>
      <trkpt lat="38.494744934141636" lon="-109.72789021208882">
        <ele>1804.4000244140625</ele>
        <time>2012-05-17T23:54:05Z</time>
      </trkpt>
      <trkpt lat="38.4948003385216" lon="-109.72772349603474">
        <ele>1804.4000244140625</ele>
        <time>2012-05-17T23:54:09Z</time>
      </trkpt>
      <trkpt lat="38.49490636959672" lon="-109.72765526734293">
        <ele>1804</ele>
        <time>2012-05-17T23:54:12Z</time>
      </trkpt>
      <trkpt lat="38.49508817307651" lon="-109.72754462622106">
        <ele>1800.4000244140625</ele>
        <time>2012-05-17T23:54:17Z</time>
      </trkpt>
      <trkpt lat="38.495273496955633" lon="-109.72754848189652">
        <ele>1800.199951171875</ele>
        <time>2012-05-17T23:54:21Z</time>
      </trkpt>
      <trkpt lat="38.495360501110554" lon="-109.72754504531622">
        <ele>1800.199951171875</ele>
        <time>2012-05-17T23:54:23Z</time>
      </trkpt>
      <trkpt lat="38.495425879955292" lon="-109.72748343832791">
        <ele>1799.4000244140625</ele>
        <time>2012-05-17T23:54:25Z</time>
      </trkpt>
      <trkpt lat="38.495507938787341" lon="-109.72750933840871">
        <ele>1799.5999755859375</ele>
        <time>2012-05-17T23:54:28Z</time>
      </trkpt>
      <trkpt lat="38.495601732283831" lon="-109.72753934562206">
        <ele>1800</ele>
        <time>2012-05-17T23:54:31Z</time>
      </trkpt>
      <trkpt lat="38.495635930448771" lon="-109.72755426540971">
        <ele>1800</ele>
        <time>2012-05-17T23:54:32Z</time>
      </trkpt>
      <trkpt lat="38.495747661218047" lon="-109.72755309194326">
        <ele>1799.800048828125</ele>
        <time>2012-05-17T23:54:35Z</time>
      </trkpt>
      <trkpt lat="38.495780266821384" lon="-109.72758217714727">
        <ele>1800</ele>
        <time>2012-05-17T23:54:36Z</time>
      </trkpt>
      <trkpt lat="38.495856374502182" lon="-109.72758485935628">
        <ele>1799.800048828125</ele>
        <time>2012-05-17T23:54:38Z</time>
      </trkpt>
      <trkpt lat="38.495997944846749" lon="-109.7275737952441">
        <ele>1799.4000244140625</ele>
        <time>2012-05-17T23:54:41Z</time>
      </trkpt>
      <trkpt lat="38.496086793020368" lon="-109.72754152491689">
        <ele>1799</ele>
        <time>2012-05-17T23:54:43Z</time>
      </trkpt>
      <trkpt lat="38.496138257905841" lon="-109.7275357414037">
        <ele>1799</ele>
        <time>2012-05-17T23:54:44Z</time>
      </trkpt>
      <trkpt lat="38.496203720569611" lon="-109.72743926569819">
        <ele>1798.5999755859375</ele>
        <time>2012-05-17T23:54:46Z</time>
      </trkpt>
      <trkpt lat="38.496274296194315" lon="-109.72728948108852">
        <ele>1798</ele>
        <time>2012-05-17T23:54:49Z</time>
      </trkpt>
      <trkpt lat="38.496398851275444" lon="-109.72722326405346">
        <ele>1798</ele>
        <time>2012-05-17T23:54:52Z</time>
      </trkpt>
      <trkpt lat="38.496359875425696" lon="-109.72708881832659">
        <ele>1797.4000244140625</ele>
        <time>2012-05-17T23:54:55Z</time>
      </trkpt>
      <trkpt lat="38.496240098029375" lon="-109.72685571759939">
        <ele>1796</ele>
        <time>2012-05-17T23:55:00Z</time>
      </trkpt>
      <trkpt lat="38.496209755539894" lon="-109.72680919803679">
        <ele>1795.5999755859375</ele>
        <time>2012-05-17T23:55:01Z</time>
      </trkpt>
      <trkpt lat="38.496232470497489" lon="-109.72666393965483">
        <ele>1795.199951171875</ele>
        <time>2012-05-17T23:55:04Z</time>
      </trkpt>
      <trkpt lat="38.49635417573154" lon="-109.72661314532161">
        <ele>1795.800048828125</ele>
        <time>2012-05-17T23:55:07Z</time>
      </trkpt>
      <trkpt lat="38.496397091075778" lon="-109.72660870291293">
        <ele>1796</ele>
        <time>2012-05-17T23:55:08Z</time>
      </trkpt>
      <trkpt lat="38.496527262032032" lon="-109.72659772261977">
        <ele>1796.5999755859375</ele>
        <time>2012-05-17T23:55:11Z</time>
      </trkpt>
      <trkpt lat="38.49654913879931" lon="-109.72657886333764">
        <ele>1796.800048828125</ele>
        <time>2012-05-17T23:55:12Z</time>
      </trkpt>
      <trkpt lat="38.496596831828356" lon="-109.72657768987119">
        <ele>1797</ele>
        <time>2012-05-17T23:55:14Z</time>
      </trkpt>
      <trkpt lat="38.496756423264742" lon="-109.72652748227119">
        <ele>1797.4000244140625</ele>
        <time>2012-05-17T23:55:20Z</time>
      </trkpt>
      <trkpt lat="38.49690587259829" lon="-109.72640912979841">
        <ele>1798.199951171875</ele>
        <time>2012-05-17T23:55:25Z</time>
      </trkpt>
      <trkpt lat="38.496941663324833" lon="-109.72641767933965">
        <ele>1798.4000244140625</ele>
        <time>2012-05-17T23:55:26Z</time>
      </trkpt>
      <trkpt lat="38.497008718550205" lon="-109.72643402405083">
        <ele>1799</ele>
        <time>2012-05-17T23:55:28Z</time>
      </trkpt>
      <trkpt lat="38.497041407972574" lon="-109.72642346285284">
        <ele>1799.199951171875</ele>
        <time>2012-05-17T23:55:29Z</time>
      </trkpt>
      <trkpt lat="38.49712623283267" lon="-109.7263858281076">
        <ele>1799.5999755859375</ele>
        <time>2012-05-17T23:55:32Z</time>
      </trkpt>
      <trkpt lat="38.497323375195265" lon="-109.72631206735969">
        <ele>1800.199951171875</ele>
        <time>2012-05-17T23:55:39Z</time>
      </trkpt>
      <trkpt lat="38.497473243623972" lon="-109.72626177594066">
        <ele>1801.4000244140625</ele>
        <time>2012-05-17T23:55:44Z</time>
      </trkpt>
      <trkpt lat="38.497559744864702" lon="-109.72623277455568">
        <ele>1802</ele>
        <time>2012-05-17T23:55:47Z</time>
      </trkpt>
      <trkpt lat="38.497615065425634" lon="-109.72618080675602">
        <ele>1802.4000244140625</ele>
        <time>2012-05-17T23:55:49Z</time>
      </trkpt>
      <trkpt lat="38.4976651892066" lon="-109.72611534409225">
        <ele>1803</ele>
        <time>2012-05-17T23:55:51Z</time>
      </trkpt>
      <trkpt lat="38.497766023501754" lon="-109.72594468854368">
        <ele>1804</ele>
        <time>2012-05-17T23:55:56Z</time>
      </trkpt>
      <trkpt lat="38.497886136174202" lon="-109.7257589455694">
        <ele>1805.199951171875</ele>
        <time>2012-05-17T23:56:02Z</time>
      </trkpt>
      <trkpt lat="38.49796861410141" lon="-109.72569624893367">
        <ele>1806</ele>
        <time>2012-05-17T23:56:05Z</time>
      </trkpt>
      <trkpt lat="38.497979678213596" lon="-109.72565677016973">
        <ele>1806</ele>
        <time>2012-05-17T23:56:06Z</time>
      </trkpt>
      <trkpt lat="38.498082691803575" lon="-109.72538318485022">
        <ele>1806.4000244140625</ele>
        <time>2012-05-17T23:56:13Z</time>
      </trkpt>
      <trkpt lat="38.498177574947476" lon="-109.72532970830798">
        <ele>1807</ele>
        <time>2012-05-17T23:56:16Z</time>
      </trkpt>
      <trkpt lat="38.498218394815922" lon="-109.72534286789596">
        <ele>1807.199951171875</ele>
        <time>2012-05-17T23:56:17Z</time>
      </trkpt>
      <trkpt lat="38.498398941010237" lon="-109.72534018568695">
        <ele>1808.199951171875</ele>
        <time>2012-05-17T23:56:21Z</time>
      </trkpt>
      <trkpt lat="38.49842693656683" lon="-109.72528134472668">
        <ele>1808</ele>
        <time>2012-05-17T23:56:22Z</time>
      </trkpt>
      <trkpt lat="38.498444370925426" lon="-109.72522971220315">
        <ele>1807.800048828125</ele>
        <time>2012-05-17T23:56:23Z</time>
      </trkpt>
      <trkpt lat="38.498543528839946" lon="-109.72497180104256">
        <ele>1806.5999755859375</ele>
        <time>2012-05-17T23:56:28Z</time>
      </trkpt>
      <trkpt lat="38.498581247404218" lon="-109.72491857595742">
        <ele>1806.5999755859375</ele>
        <time>2012-05-17T23:56:29Z</time>
      </trkpt>
      <trkpt lat="38.498687027022243" lon="-109.72471707500517">
        <ele>1805.5999755859375</ele>
        <time>2012-05-17T23:56:32Z</time>
      </trkpt>
      <trkpt lat="38.498713178560138" lon="-109.72463887184858">
        <ele>1805.199951171875</ele>
        <time>2012-05-17T23:56:33Z</time>
      </trkpt>
      <trkpt lat="38.498807977885008" lon="-109.72446511499584">
        <ele>1804</ele>
        <time>2012-05-17T23:56:36Z</time>
      </trkpt>
      <trkpt lat="38.4989551641047" lon="-109.72441331483424">
        <ele>1804.5999755859375</ele>
        <time>2012-05-17T23:56:39Z</time>
      </trkpt>
      <trkpt lat="38.498979806900024" lon="-109.72440443001688">
        <ele>1804.5999755859375</ele>
        <time>2012-05-17T23:56:40Z</time>
      </trkpt>
      <trkpt lat="38.49911299534142" lon="-109.724365118891">
        <ele>1802.800048828125</ele>
        <time>2012-05-17T23:56:44Z</time>
      </trkpt>
      <trkpt lat="38.499148031696677" lon="-109.72434399649501">
        <ele>1801.800048828125</ele>
        <time>2012-05-17T23:56:45Z</time>
      </trkpt>
      <trkpt lat="38.499180637300014" lon="-109.72430854104459">
        <ele>1800.800048828125</ele>
        <time>2012-05-17T23:56:46Z</time>
      </trkpt>
      <trkpt lat="38.499298235401511" lon="-109.72420485690236">
        <ele>1797.4000244140625</ele>
        <time>2012-05-17T23:56:49Z</time>
      </trkpt>
      <trkpt lat="38.499381635338068" lon="-109.724116679281">
        <ele>1795</ele>
        <time>2012-05-17T23:56:51Z</time>
      </trkpt>
      <trkpt lat="38.49945891648531" lon="-109.72402799874544">
        <ele>1792.5999755859375</ele>
        <time>2012-05-17T23:56:53Z</time>
      </trkpt>
      <trkpt lat="38.499592524021864" lon="-109.72382666543126">
        <ele>1788.4000244140625</ele>
        <time>2012-05-17T23:56:57Z</time>
      </trkpt>
      <trkpt lat="38.499610628932714" lon="-109.7237643878907">
        <ele>1788.199951171875</ele>
        <time>2012-05-17T23:56:58Z</time>
      </trkpt>
      <trkpt lat="38.499667039141059" lon="-109.72358987666667">
        <ele>1787</ele>
        <time>2012-05-17T23:57:01Z</time>
      </trkpt>
      <trkpt lat="38.499699896201491" lon="-109.72354335710406">
        <ele>1786.800048828125</ele>
        <time>2012-05-17T23:57:02Z</time>
      </trkpt>
      <trkpt lat="38.499770723283291" lon="-109.72344981506467">
        <ele>1786.199951171875</ele>
        <time>2012-05-17T23:57:04Z</time>
      </trkpt>
      <trkpt lat="38.499825540930033" lon="-109.72334294579923">
        <ele>1785</ele>
        <time>2012-05-17T23:57:06Z</time>
      </trkpt>
      <trkpt lat="38.499841382727027" lon="-109.7232839372009">
        <ele>1784.199951171875</ele>
        <time>2012-05-17T23:57:07Z</time>
      </trkpt>
      <trkpt lat="38.499907432124019" lon="-109.72305242903531">
        <ele>1781.199951171875</ele>
        <time>2012-05-17T23:57:11Z</time>
      </trkpt>
      <trkpt lat="38.499998794868588" lon="-109.72277171909809">
        <ele>1776.4000244140625</ele>
        <time>2012-05-17T23:57:16Z</time>
      </trkpt>
      <trkpt lat="38.50003550760448" lon="-109.72254088148475">
        <ele>1788.199951171875</ele>
        <time>2012-05-17T23:57:20Z</time>
      </trkpt>
      <trkpt lat="38.500045901164412" lon="-109.72249385900795">
        <ele>1788.4000244140625</ele>
        <time>2012-05-17T23:57:21Z</time>
      </trkpt>
      <trkpt lat="38.500055791810155" lon="-109.72239042632282">
        <ele>1789.199951171875</ele>
        <time>2012-05-17T23:57:23Z</time>
      </trkpt>
      <trkpt lat="38.500091917812824" lon="-109.72232010215521">
        <ele>1788.800048828125</ele>
        <time>2012-05-17T23:57:25Z</time>
      </trkpt>
      <trkpt lat="38.500146400183439" lon="-109.72225447185338">
        <ele>1788</ele>
        <time>2012-05-17T23:57:27Z</time>
      </trkpt>
      <trkpt lat="38.500165846198797" lon="-109.72220954485238">
        <ele>1787.5999755859375</ele>
        <time>2012-05-17T23:57:28Z</time>
      </trkpt>
      <trkpt lat="38.500195685774088" lon="-109.72210829146206">
        <ele>1787</ele>
        <time>2012-05-17T23:57:30Z</time>
      </trkpt>
      <trkpt lat="38.500214125961065" lon="-109.72199941053987">
        <ele>1787.4000244140625</ele>
        <time>2012-05-17T23:57:32Z</time>
      </trkpt>
      <trkpt lat="38.500208929181099" lon="-109.72184074111283">
        <ele>1787.5999755859375</ele>
        <time>2012-05-17T23:57:35Z</time>
      </trkpt>
      <trkpt lat="38.500197445973754" lon="-109.72178969532251">
        <ele>1787.4000244140625</ele>
        <time>2012-05-17T23:57:36Z</time>
      </trkpt>
      <trkpt lat="38.500202056020498" lon="-109.72164108417928">
        <ele>1786.800048828125</ele>
        <time>2012-05-17T23:57:39Z</time>
      </trkpt>
      <trkpt lat="38.500222507864237" lon="-109.72159758210182">
        <ele>1787</ele>
        <time>2012-05-17T23:57:40Z</time>
      </trkpt>
      <trkpt lat="38.500239355489612" lon="-109.72154963761568">
        <ele>1787.199951171875</ele>
        <time>2012-05-17T23:57:41Z</time>
      </trkpt>
      <trkpt lat="38.500258885324001" lon="-109.72137554548681">
        <ele>1786.5999755859375</ele>
        <time>2012-05-17T23:57:44Z</time>
      </trkpt>
      <trkpt lat="38.500257795676589" lon="-109.72131812945008">
        <ele>1786.199951171875</ele>
        <time>2012-05-17T23:57:45Z</time>
      </trkpt>
      <trkpt lat="38.500222256407142" lon="-109.72120723687112">
        <ele>1783.199951171875</ele>
        <time>2012-05-17T23:57:47Z</time>
      </trkpt>
      <trkpt lat="38.500097952783108" lon="-109.72085754387081">
        <ele>1773</ele>
        <time>2012-05-17T23:57:53Z</time>
      </trkpt>
      <trkpt lat="38.499972391873598" lon="-109.72067414782941">
        <ele>1767.199951171875</ele>
        <time>2012-05-17T23:57:57Z</time>
      </trkpt>
      <trkpt lat="38.499902235344052" lon="-109.72051899880171">
        <ele>1768</ele>
        <time>2012-05-17T23:58:00Z</time>
      </trkpt>
      <trkpt lat="38.499900475144386" lon="-109.7203516960144">
        <ele>1769.199951171875</ele>
        <time>2012-05-17T23:58:03Z</time>
      </trkpt>
      <trkpt lat="38.499904247000813" lon="-109.72029914148152">
        <ele>1769.5999755859375</ele>
        <time>2012-05-17T23:58:04Z</time>
      </trkpt>
      <trkpt lat="38.499907851219177" lon="-109.72020040266216">
        <ele>1770.4000244140625</ele>
        <time>2012-05-17T23:58:06Z</time>
      </trkpt>
      <trkpt lat="38.499919418245554" lon="-109.72011851146817">
        <ele>1771</ele>
        <time>2012-05-17T23:58:08Z</time>
      </trkpt>
      <trkpt lat="38.499892428517342" lon="-109.72004022449255">
        <ele>1770.800048828125</ele>
        <time>2012-05-17T23:58:10Z</time>
      </trkpt>
      <trkpt lat="38.499845489859581" lon="-109.71997451037169">
        <ele>1770.4000244140625</ele>
        <time>2012-05-17T23:58:12Z</time>
      </trkpt>
      <trkpt lat="38.49982151761651" lon="-109.71988331526518">
        <ele>1769.800048828125</ele>
        <time>2012-05-17T23:58:15Z</time>
      </trkpt>
      <trkpt lat="38.499816488474607" lon="-109.71988172270358">
        <ele>1769.5999755859375</ele>
        <time>2012-05-17T23:58:21Z</time>
      </trkpt>
      <trkpt lat="38.499805927276611" lon="-109.71989370882511">
        <ele>1769.5999755859375</ele>
        <time>2012-05-17T23:58:26Z</time>
      </trkpt>
      <trkpt lat="38.499754127115011" lon="-109.71991231665015">
        <ele>1768.5999755859375</ele>
        <time>2012-05-17T23:58:32Z</time>
      </trkpt>
      <trkpt lat="38.499682461842895" lon="-109.71988247707486">
        <ele>1767.5999755859375</ele>
        <time>2012-05-17T23:58:39Z</time>
      </trkpt>
      <trkpt lat="38.49961431697011" lon="-109.7198426630348">
        <ele>1766.4000244140625</ele>
        <time>2012-05-17T23:58:46Z</time>
      </trkpt>
      <trkpt lat="38.499546507373452" lon="-109.71978063695133">
        <ele>1765.5999755859375</ele>
        <time>2012-05-17T23:58:54Z</time>
      </trkpt>
      <trkpt lat="38.499486995860934" lon="-109.71972565166652">
        <ele>1765</ele>
        <time>2012-05-17T23:59:01Z</time>
      </trkpt>
      <trkpt lat="38.49948339164257" lon="-109.71971534192562">
        <ele>1765</ele>
        <time>2012-05-17T23:59:02Z</time>
      </trkpt>
      <trkpt lat="38.499403931200504" lon="-109.71962909214199">
        <ele>1764.4000244140625</ele>
        <time>2012-05-17T23:59:13Z</time>
      </trkpt>
      <trkpt lat="38.499355567619205" lon="-109.71963345073164">
        <ele>1763.800048828125</ele>
        <time>2012-05-17T23:59:20Z</time>
      </trkpt>
      <trkpt lat="38.499352466315031" lon="-109.71964602358639">
        <ele>1763.800048828125</ele>
        <time>2012-05-17T23:59:32Z</time>
      </trkpt>
      <trkpt lat="38.499392867088318" lon="-109.71965172328055">
        <ele>1764.199951171875</ele>
        <time>2012-05-17T23:59:42Z</time>
      </trkpt>
      <trkpt lat="38.499425305053592" lon="-109.71965348348022">
        <ele>1764.4000244140625</ele>
        <time>2012-05-17T23:59:49Z</time>
      </trkpt>
      <trkpt lat="38.499458497390151" lon="-109.71968298777938">
        <ele>1764.800048828125</ele>
        <time>2012-05-18T00:00:07Z</time>
      </trkpt>
      <trkpt lat="38.499490935355425" lon="-109.7197353746742">
        <ele>1765</ele>
        <time>2012-05-18T00:00:13Z</time>
      </trkpt>
      <trkpt lat="38.499496132135391" lon="-109.71974518150091">
        <ele>1765</ele>
        <time>2012-05-18T00:00:14Z</time>
      </trkpt>
      <trkpt lat="38.49951901473105" lon="-109.71979446709156">
        <ele>1765.199951171875</ele>
        <time>2012-05-18T00:00:20Z</time>
      </trkpt>
      <trkpt lat="38.499555392190814" lon="-109.71979798749089">
        <ele>1765.5999755859375</ele>
        <time>2012-05-18T00:00:38Z</time>
      </trkpt>
      <trkpt lat="38.499565869569778" lon="-109.71980335190892">
        <ele>1765.800048828125</ele>
        <time>2012-05-18T00:00:47Z</time>
      </trkpt>
      <trkpt lat="38.499603923410177" lon="-109.71981500275433">
        <ele>1766.4000244140625</ele>
        <time>2012-05-18T00:01:46Z</time>
      </trkpt>
      <trkpt lat="38.499648934230208" lon="-109.71985037438571">
        <ele>1767</ele>
        <time>2012-05-18T00:01:53Z</time>
      </trkpt>
      <trkpt lat="38.499702829867601" lon="-109.71990309655666">
        <ele>1767.800048828125</ele>
        <time>2012-05-18T00:02:02Z</time>
      </trkpt>
      <trkpt lat="38.499795952811837" lon="-109.71994332969189">
        <ele>1769.4000244140625</ele>
        <time>2012-05-18T00:02:12Z</time>
      </trkpt>
      <trkpt lat="38.499837359413505" lon="-109.7199148312211">
        <ele>1770</ele>
        <time>2012-05-18T00:02:20Z</time>
      </trkpt>
      <trkpt lat="38.499848423525691" lon="-109.71989387646317">
        <ele>1770.199951171875</ele>
        <time>2012-05-18T00:02:26Z</time>
      </trkpt>
      <trkpt lat="38.499863762408495" lon="-109.71990376710892">
        <ele>1770.4000244140625</ele>
        <time>2012-05-18T00:02:31Z</time>
      </trkpt>
      <trkpt lat="38.499903241172433" lon="-109.71991466358304">
        <ele>1770.4000244140625</ele>
        <time>2012-05-18T00:02:37Z</time>
      </trkpt>
      <trkpt lat="38.499934589490294" lon="-109.71988817676902">
        <ele>1770.4000244140625</ele>
        <time>2012-05-18T00:02:44Z</time>
      </trkpt>
      <trkpt lat="38.50005554035306" lon="-109.71975909546018">
        <ele>1774.800048828125</ele>
        <time>2012-05-18T00:02:50Z</time>
      </trkpt>
      <trkpt lat="38.500134246423841" lon="-109.71975632943213">
        <ele>1774.800048828125</ele>
        <time>2012-05-18T00:02:53Z</time>
      </trkpt>
      <trkpt lat="38.500244133174419" lon="-109.71971249207854">
        <ele>1776.4000244140625</ele>
        <time>2012-05-18T00:02:57Z</time>
      </trkpt>
      <trkpt lat="38.500277744606137" lon="-109.71971366554499">
        <ele>1777</ele>
        <time>2012-05-18T00:02:58Z</time>
      </trkpt>
      <trkpt lat="38.500467594712973" lon="-109.71972171217203">
        <ele>1780.5999755859375</ele>
        <time>2012-05-18T00:03:04Z</time>
      </trkpt>
      <trkpt lat="38.500648895278573" lon="-109.71978943794966">
        <ele>1784.199951171875</ele>
        <time>2012-05-18T00:03:10Z</time>
      </trkpt>
      <trkpt lat="38.500671526417136" lon="-109.71981265582144">
        <ele>1784.800048828125</ele>
        <time>2012-05-18T00:03:11Z</time>
      </trkpt>
      <trkpt lat="38.500695750117302" lon="-109.71987912431359">
        <ele>1785.199951171875</ele>
        <time>2012-05-18T00:03:13Z</time>
      </trkpt>
      <trkpt lat="38.500712011009455" lon="-109.72018665634096">
        <ele>1786.4000244140625</ele>
        <time>2012-05-18T00:03:21Z</time>
      </trkpt>
      <trkpt lat="38.500664904713631" lon="-109.72044548951089">
        <ele>1785.800048828125</ele>
        <time>2012-05-18T00:03:27Z</time>
      </trkpt>
      <trkpt lat="38.500708658248186" lon="-109.72063902765512">
        <ele>1787</ele>
        <time>2012-05-18T00:03:32Z</time>
      </trkpt>
      <trkpt lat="38.500785268843174" lon="-109.72080146893859">
        <ele>1789.800048828125</ele>
        <time>2012-05-18T00:03:36Z</time>
      </trkpt>
      <trkpt lat="38.500768840312958" lon="-109.72104311920702">
        <ele>1791.800048828125</ele>
        <time>2012-05-18T00:03:41Z</time>
      </trkpt>
      <trkpt lat="38.500819550827146" lon="-109.72125937230885">
        <ele>1795.4000244140625</ele>
        <time>2012-05-18T00:03:46Z</time>
      </trkpt>
      <trkpt lat="38.500922564417124" lon="-109.72146430984139">
        <ele>1798.4000244140625</ele>
        <time>2012-05-18T00:03:52Z</time>
      </trkpt>
      <trkpt lat="38.500995989888906" lon="-109.72153019160032">
        <ele>1799.5999755859375</ele>
        <time>2012-05-18T00:03:56Z</time>
      </trkpt>
      <trkpt lat="38.5011016856879" lon="-109.72161971032619">
        <ele>1800.4000244140625</ele>
        <time>2012-05-18T00:04:02Z</time>
      </trkpt>
      <trkpt lat="38.501174859702587" lon="-109.72164971753955">
        <ele>1800.800048828125</ele>
        <time>2012-05-18T00:04:06Z</time>
      </trkpt>
      <trkpt lat="38.501183493062854" lon="-109.72163328900933">
        <ele>1801</ele>
        <time>2012-05-18T00:04:07Z</time>
      </trkpt>
      <trkpt lat="38.501178883016109" lon="-109.72156405448914">
        <ele>1800.800048828125</ele>
        <time>2012-05-18T00:04:11Z</time>
      </trkpt>
      <trkpt lat="38.501179218292236" lon="-109.72155869007111">
        <ele>1800.800048828125</ele>
        <time>2012-05-18T00:04:12Z</time>
      </trkpt>
      <trkpt lat="38.501178883016109" lon="-109.72154980525374">
        <ele>1800.800048828125</ele>
        <time>2012-05-18T00:04:13Z</time>
      </trkpt>
      <trkpt lat="38.501180894672871" lon="-109.72154100425541">
        <ele>1800.800048828125</ele>
        <time>2012-05-18T00:04:16Z</time>
      </trkpt>
      <trkpt lat="38.501185839995742" lon="-109.72150269895792">
        <ele>1800.800048828125</ele>
        <time>2012-05-18T00:04:20Z</time>
      </trkpt>
      <trkpt lat="38.501174105331302" lon="-109.72147084772587">
        <ele>1800.5999755859375</ele>
        <time>2012-05-18T00:04:23Z</time>
      </trkpt>
      <trkpt lat="38.50115641951561" lon="-109.72144553437829">
        <ele>1800.4000244140625</ele>
        <time>2012-05-18T00:04:26Z</time>
      </trkpt>
      <trkpt lat="38.501151222735643" lon="-109.72143379971385">
        <ele>1800.199951171875</ele>
        <time>2012-05-18T00:04:27Z</time>
      </trkpt>
      <trkpt lat="38.501146445050836" lon="-109.72137001343071">
        <ele>1800</ele>
        <time>2012-05-18T00:04:32Z</time>
      </trkpt>
      <trkpt lat="38.501157257705927" lon="-109.7213554289192">
        <ele>1800</ele>
        <time>2012-05-18T00:04:33Z</time>
      </trkpt>
      <trkpt lat="38.501205034554005" lon="-109.7213554289192">
        <ele>1800.4000244140625</ele>
        <time>2012-05-18T00:04:36Z</time>
      </trkpt>
      <trkpt lat="38.501231353729963" lon="-109.72134939394891">
        <ele>1800.5999755859375</ele>
        <time>2012-05-18T00:04:41Z</time>
      </trkpt>
      <trkpt lat="38.501251386478543" lon="-109.7212983481586">
        <ele>1800.800048828125</ele>
        <time>2012-05-18T00:04:48Z</time>
      </trkpt>
      <trkpt lat="38.50123512558639" lon="-109.72119047306478">
        <ele>1800.199951171875</ele>
        <time>2012-05-18T00:04:55Z</time>
      </trkpt>
      <trkpt lat="38.501190450042486" lon="-109.72102459520102">
        <ele>1799</ele>
        <time>2012-05-18T00:05:01Z</time>
      </trkpt>
      <trkpt lat="38.501133620738983" lon="-109.7208337392658">
        <ele>1797.199951171875</ele>
        <time>2012-05-18T00:05:07Z</time>
      </trkpt>
      <trkpt lat="38.501167315989733" lon="-109.72068848088384">
        <ele>1796.800048828125</ele>
        <time>2012-05-18T00:05:12Z</time>
      </trkpt>
      <trkpt lat="38.501134878024459" lon="-109.72056115977466">
        <ele>1795.5999755859375</ele>
        <time>2012-05-18T00:05:17Z</time>
      </trkpt>
      <trkpt lat="38.501130603253841" lon="-109.7205263748765">
        <ele>1795.4000244140625</ele>
        <time>2012-05-18T00:05:18Z</time>
      </trkpt>
      <trkpt lat="38.501056507229805" lon="-109.72033476457">
        <ele>1793.199951171875</ele>
        <time>2012-05-18T00:05:24Z</time>
      </trkpt>
      <trkpt lat="38.501009736210108" lon="-109.72023225389421">
        <ele>1791.800048828125</ele>
        <time>2012-05-18T00:05:27Z</time>
      </trkpt>
      <trkpt lat="38.501009065657854" lon="-109.72019218839705">
        <ele>1791.5999755859375</ele>
        <time>2012-05-18T00:05:28Z</time>
      </trkpt>
      <trkpt lat="38.500977801159024" lon="-109.71997945569456">
        <ele>1790.5999755859375</ele>
        <time>2012-05-18T00:05:33Z</time>
      </trkpt>
      <trkpt lat="38.501018034294248" lon="-109.71985967829823">
        <ele>1791</ele>
        <time>2012-05-18T00:05:36Z</time>
      </trkpt>
      <trkpt lat="38.50104209035635" lon="-109.71978290006518">
        <ele>1791.4000244140625</ele>
        <time>2012-05-18T00:05:38Z</time>
      </trkpt>
      <trkpt lat="38.501040078699589" lon="-109.71974342130125">
        <ele>1791.4000244140625</ele>
        <time>2012-05-18T00:05:39Z</time>
      </trkpt>
      <trkpt lat="38.501052735373378" lon="-109.71962850540876">
        <ele>1791.4000244140625</ele>
        <time>2012-05-18T00:05:42Z</time>
      </trkpt>
      <trkpt lat="38.501067403703928" lon="-109.71959447488189">
        <ele>1791.800048828125</ele>
        <time>2012-05-18T00:05:43Z</time>
      </trkpt>
      <trkpt lat="38.501072181388736" lon="-109.71950663253665">
        <ele>1791.800048828125</ele>
        <time>2012-05-18T00:05:45Z</time>
      </trkpt>
      <trkpt lat="38.501054495573044" lon="-109.71947260200977">
        <ele>1791.5999755859375</ele>
        <time>2012-05-18T00:05:46Z</time>
      </trkpt>
      <trkpt lat="38.501041000708938" lon="-109.71930982545018">
        <ele>1791.4000244140625</ele>
        <time>2012-05-18T00:05:50Z</time>
      </trkpt>
      <trkpt lat="38.501054160296917" lon="-109.71898687072098">
        <ele>1792.4000244140625</ele>
        <time>2012-05-18T00:05:58Z</time>
      </trkpt>
      <trkpt lat="38.501027170568705" lon="-109.71866810694337">
        <ele>1793.199951171875</ele>
        <time>2012-05-18T00:06:06Z</time>
      </trkpt>
      <trkpt lat="38.501041419804096" lon="-109.71842268481851">
        <ele>1794</ele>
        <time>2012-05-18T00:06:12Z</time>
      </trkpt>
      <trkpt lat="38.50116178393364" lon="-109.71835001371801">
        <ele>1795.199951171875</ele>
        <time>2012-05-18T00:06:15Z</time>
      </trkpt>
      <trkpt lat="38.501332271844149" lon="-109.71816645003855">
        <ele>1796.199951171875</ele>
        <time>2012-05-18T00:06:19Z</time>
      </trkpt>
      <trkpt lat="38.50155615247786" lon="-109.71802211366594">
        <ele>1797.4000244140625</ele>
        <time>2012-05-18T00:06:23Z</time>
      </trkpt>
      <trkpt lat="38.501777267083526" lon="-109.71790879033506">
        <ele>1797.199951171875</ele>
        <time>2012-05-18T00:06:27Z</time>
      </trkpt>
      <trkpt lat="38.501820936799049" lon="-109.71787207759917">
        <ele>1797</ele>
        <time>2012-05-18T00:06:28Z</time>
      </trkpt>
      <trkpt lat="38.50186544470489" lon="-109.71784642897546">
        <ele>1797.199951171875</ele>
        <time>2012-05-18T00:06:29Z</time>
      </trkpt>
      <trkpt lat="38.50194901227951" lon="-109.71783075481653">
        <ele>1797.800048828125</ele>
        <time>2012-05-18T00:06:31Z</time>
      </trkpt>
      <trkpt lat="38.5021136328578" lon="-109.71782388165593">
        <ele>1799</ele>
        <time>2012-05-18T00:06:35Z</time>
      </trkpt>
      <trkpt lat="38.502233242616057" lon="-109.71778532490134">
        <ele>1800.199951171875</ele>
        <time>2012-05-18T00:06:38Z</time>
      </trkpt>
      <trkpt lat="38.502398785203695" lon="-109.71773562021554">
        <ele>1802</ele>
        <time>2012-05-18T00:06:43Z</time>
      </trkpt>
      <trkpt lat="38.502447316423059" lon="-109.7176683973521">
        <ele>1802.4000244140625</ele>
        <time>2012-05-18T00:06:45Z</time>
      </trkpt>
      <trkpt lat="38.502460056915879" lon="-109.71756890416145">
        <ele>1802.4000244140625</ele>
        <time>2012-05-18T00:06:47Z</time>
      </trkpt>
      <trkpt lat="38.502489309757948" lon="-109.71748885698617">
        <ele>1802.5999755859375</ele>
        <time>2012-05-18T00:06:49Z</time>
      </trkpt>
      <trkpt lat="38.502504732459784" lon="-109.7174041159451">
        <ele>1802.5999755859375</ele>
        <time>2012-05-18T00:06:51Z</time>
      </trkpt>
      <trkpt lat="38.502491991966963" lon="-109.71734980121255">
        <ele>1802.4000244140625</ele>
        <time>2012-05-18T00:06:52Z</time>
      </trkpt>
      <trkpt lat="38.502434575930238" lon="-109.7172883618623">
        <ele>1801.800048828125</ele>
        <time>2012-05-18T00:06:54Z</time>
      </trkpt>
      <trkpt lat="38.502338100224733" lon="-109.71725617535412">
        <ele>1800.800048828125</ele>
        <time>2012-05-18T00:06:57Z</time>
      </trkpt>
      <trkpt lat="38.502303985878825" lon="-109.71725173294544">
        <ele>1800.199951171875</ele>
        <time>2012-05-18T00:06:58Z</time>
      </trkpt>
      <trkpt lat="38.502142718061805" lon="-109.71725022420287">
        <ele>1797.5999755859375</ele>
        <time>2012-05-18T00:07:03Z</time>
      </trkpt>
      <trkpt lat="38.502108938992023" lon="-109.71715240739286">
        <ele>1797.5999755859375</ele>
        <time>2012-05-18T00:07:06Z</time>
      </trkpt>
      <trkpt lat="38.50217473693192" lon="-109.71711267717183">
        <ele>1798.5999755859375</ele>
        <time>2012-05-18T00:07:10Z</time>
      </trkpt>
      <trkpt lat="38.502275571227074" lon="-109.71709289588034">
        <ele>1800</ele>
        <time>2012-05-18T00:07:14Z</time>
      </trkpt>
      <trkpt lat="38.502330305054784" lon="-109.71709222532809">
        <ele>1800.800048828125</ele>
        <time>2012-05-18T00:07:16Z</time>
      </trkpt>
      <trkpt lat="38.502413872629404" lon="-109.71706867218018">
        <ele>1801.800048828125</ele>
        <time>2012-05-18T00:07:19Z</time>
      </trkpt>
      <trkpt lat="38.502445388585329" lon="-109.71700547263026">
        <ele>1802.199951171875</ele>
        <time>2012-05-18T00:07:21Z</time>
      </trkpt>
      <trkpt lat="38.502436252310872" lon="-109.71696842461824">
        <ele>1802.199951171875</ele>
        <time>2012-05-18T00:07:22Z</time>
      </trkpt>
      <trkpt lat="38.502375651150942" lon="-109.71690396778286">
        <ele>1801.5999755859375</ele>
        <time>2012-05-18T00:07:25Z</time>
      </trkpt>
      <trkpt lat="38.502349918708205" lon="-109.71687882207334">
        <ele>1801.4000244140625</ele>
        <time>2012-05-18T00:07:26Z</time>
      </trkpt>
      <trkpt lat="38.502335166558623" lon="-109.71684873104095">
        <ele>1801.199951171875</ele>
        <time>2012-05-18T00:07:27Z</time>
      </trkpt>
      <trkpt lat="38.502337010577321" lon="-109.71678578294814">
        <ele>1801.4000244140625</ele>
        <time>2012-05-18T00:07:29Z</time>
      </trkpt>
      <trkpt lat="38.50238973274827" lon="-109.71663809381425">
        <ele>1802</ele>
        <time>2012-05-18T00:07:34Z</time>
      </trkpt>
      <trkpt lat="38.502409346401691" lon="-109.71663122065365">
        <ele>1802.199951171875</ele>
        <time>2012-05-18T00:07:35Z</time>
      </trkpt>
      <trkpt lat="38.502543540671468" lon="-109.71661428920925">
        <ele>1803.800048828125</ele>
        <time>2012-05-18T00:07:40Z</time>
      </trkpt>
      <trkpt lat="38.502582181245089" lon="-109.71657791174948">
        <ele>1804.199951171875</ele>
        <time>2012-05-18T00:07:42Z</time>
      </trkpt>
      <trkpt lat="38.502634735777974" lon="-109.71649778075516">
        <ele>1804.5999755859375</ele>
        <time>2012-05-18T00:07:45Z</time>
      </trkpt>
      <trkpt lat="38.502749819308519" lon="-109.71634246408939">
        <ele>1804.800048828125</ele>
        <time>2012-05-18T00:07:50Z</time>
      </trkpt>
      <trkpt lat="38.502811007201672" lon="-109.7162629198283">
        <ele>1804.800048828125</ele>
        <time>2012-05-18T00:07:53Z</time>
      </trkpt>
      <trkpt lat="38.502874039113522" lon="-109.71624246798456">
        <ele>1805.199951171875</ele>
        <time>2012-05-18T00:07:55Z</time>
      </trkpt>
      <trkpt lat="38.503032373264432" lon="-109.71618169918656">
        <ele>1805.4000244140625</ele>
        <time>2012-05-18T00:08:00Z</time>
      </trkpt>
      <trkpt lat="38.503186013549566" lon="-109.71621061675251">
        <ele>1806.199951171875</ele>
        <time>2012-05-18T00:08:05Z</time>
      </trkpt>
      <trkpt lat="38.503269832581282" lon="-109.7162452340126">
        <ele>1806.5999755859375</ele>
        <time>2012-05-18T00:08:09Z</time>
      </trkpt>
      <trkpt lat="38.503324063494802" lon="-109.71626652404666">
        <ele>1806.800048828125</ele>
        <time>2012-05-18T00:08:11Z</time>
      </trkpt>
      <trkpt lat="38.503354573622346" lon="-109.71626208163798">
        <ele>1806.800048828125</ele>
        <time>2012-05-18T00:08:12Z</time>
      </trkpt>
      <trkpt lat="38.503411989659071" lon="-109.71621413715184">
        <ele>1806.5999755859375</ele>
        <time>2012-05-18T00:08:14Z</time>
      </trkpt>
      <trkpt lat="38.503433195874095" lon="-109.71611539833248">
        <ele>1806.4000244140625</ele>
        <time>2012-05-18T00:08:17Z</time>
      </trkpt>
      <trkpt lat="38.503458090126514" lon="-109.71602629870176">
        <ele>1806.4000244140625</ele>
        <time>2012-05-18T00:08:20Z</time>
      </trkpt>
      <trkpt lat="38.503467561677098" lon="-109.7158739157021">
        <ele>1806</ele>
        <time>2012-05-18T00:08:25Z</time>
      </trkpt>
      <trkpt lat="38.503507962450385" lon="-109.71575003117323">
        <ele>1805.800048828125</ele>
        <time>2012-05-18T00:08:28Z</time>
      </trkpt>
      <trkpt lat="38.503565294668078" lon="-109.71563494764268">
        <ele>1805.800048828125</ele>
        <time>2012-05-18T00:08:31Z</time>
      </trkpt>
      <trkpt lat="38.503583567216992" lon="-109.71559094265103">
        <ele>1805.800048828125</ele>
        <time>2012-05-18T00:08:32Z</time>
      </trkpt>
      <trkpt lat="38.503586081787944" lon="-109.71554190851748">
        <ele>1805.5999755859375</ele>
        <time>2012-05-18T00:08:33Z</time>
      </trkpt>
      <trkpt lat="38.503546267747879" lon="-109.71543294377625">
        <ele>1805.199951171875</ele>
        <time>2012-05-18T00:08:35Z</time>
      </trkpt>
      <trkpt lat="38.503430094569921" lon="-109.71531936898828">
        <ele>1805.5999755859375</ele>
        <time>2012-05-18T00:08:38Z</time>
      </trkpt>
      <trkpt lat="38.503388101235032" lon="-109.71530193462968">
        <ele>1805.5999755859375</ele>
        <time>2012-05-18T00:08:39Z</time>
      </trkpt>
      <trkpt lat="38.503350131213665" lon="-109.71527301706374">
        <ele>1805.5999755859375</ele>
        <time>2012-05-18T00:08:40Z</time>
      </trkpt>
      <trkpt lat="38.50329858250916" lon="-109.71520160324872">
        <ele>1805.5999755859375</ele>
        <time>2012-05-18T00:08:42Z</time>
      </trkpt>
      <trkpt lat="38.503235885873437" lon="-109.71513940952718">
        <ele>1805.5999755859375</ele>
        <time>2012-05-18T00:08:44Z</time>
      </trkpt>
      <trkpt lat="38.503152234479785" lon="-109.71512423828244">
        <ele>1805.199951171875</ele>
        <time>2012-05-18T00:08:46Z</time>
      </trkpt>
      <trkpt lat="38.503145026043057" lon="-109.7150556743145">
        <ele>1805.199951171875</ele>
        <time>2012-05-18T00:08:49Z</time>
      </trkpt>
      <trkpt lat="38.503220211714506" lon="-109.71505709923804">
        <ele>1805.5999755859375</ele>
        <time>2012-05-18T00:08:53Z</time>
      </trkpt>
      <trkpt lat="38.503224989399314" lon="-109.71505768597126">
        <ele>1805.5999755859375</ele>
        <time>2012-05-18T00:08:54Z</time>
      </trkpt>
      <trkpt lat="38.503230269998312" lon="-109.71505584195256">
        <ele>1805.5999755859375</ele>
        <time>2012-05-18T00:08:55Z</time>
      </trkpt>
      <trkpt lat="38.503242759034038" lon="-109.71505701541901">
        <ele>1805.5999755859375</ele>
        <time>2012-05-18T00:08:58Z</time>
      </trkpt>
      <trkpt lat="38.503272011876106" lon="-109.71504888497293">
        <ele>1805.800048828125</ele>
        <time>2012-05-18T00:09:04Z</time>
      </trkpt>
      <trkpt lat="38.503344850614667" lon="-109.71499775536358">
        <ele>1806.199951171875</ele>
        <time>2012-05-18T00:09:12Z</time>
      </trkpt>
      <trkpt lat="38.503366559743881" lon="-109.71500714309514">
        <ele>1806.4000244140625</ele>
        <time>2012-05-18T00:09:14Z</time>
      </trkpt>
      <trkpt lat="38.503398410975933" lon="-109.71504586748779">
        <ele>1806.4000244140625</ele>
        <time>2012-05-18T00:09:18Z</time>
      </trkpt>
      <trkpt lat="38.503465801477432" lon="-109.71509071066976">
        <ele>1806.5999755859375</ele>
        <time>2012-05-18T00:09:25Z</time>
      </trkpt>
      <trkpt lat="38.503534700721502" lon="-109.71510177478194">
        <ele>1806.4000244140625</ele>
        <time>2012-05-18T00:09:29Z</time>
      </trkpt>
      <trkpt lat="38.503553476184607" lon="-109.71508869901299">
        <ele>1806.4000244140625</ele>
        <time>2012-05-18T00:09:30Z</time>
      </trkpt>
      <trkpt lat="38.503612903878093" lon="-109.71504083834589">
        <ele>1806.4000244140625</ele>
        <time>2012-05-18T00:09:33Z</time>
      </trkpt>
      <trkpt lat="38.503658417612314" lon="-109.7149692568928">
        <ele>1806.5999755859375</ele>
        <time>2012-05-18T00:09:36Z</time>
      </trkpt>
      <trkpt lat="38.503726478666067" lon="-109.71489239484072">
        <ele>1807</ele>
        <time>2012-05-18T00:09:40Z</time>
      </trkpt>
      <trkpt lat="38.503759503364563" lon="-109.71489205956459">
        <ele>1807</ele>
        <time>2012-05-18T00:09:41Z</time>
      </trkpt>
      <trkpt lat="38.503853464499116" lon="-109.71483598463237">
        <ele>1808.199951171875</ele>
        <time>2012-05-18T00:09:45Z</time>
      </trkpt>
      <trkpt lat="38.504009367898107" lon="-109.71472475677729">
        <ele>1810.4000244140625</ele>
        <time>2012-05-18T00:09:52Z</time>
      </trkpt>
      <trkpt lat="38.504085475578904" lon="-109.71461218781769">
        <ele>1812</ele>
        <time>2012-05-18T00:09:57Z</time>
      </trkpt>
      <trkpt lat="38.504142807796597" lon="-109.71449475735426">
        <ele>1813.199951171875</ele>
        <time>2012-05-18T00:10:02Z</time>
      </trkpt>
      <trkpt lat="38.504227129742503" lon="-109.71440414898098">
        <ele>1814.199951171875</ele>
        <time>2012-05-18T00:10:07Z</time>
      </trkpt>
      <trkpt lat="38.504310781136155" lon="-109.7143474034965">
        <ele>1815</ele>
        <time>2012-05-18T00:10:14Z</time>
      </trkpt>
      <trkpt lat="38.504371549934149" lon="-109.7142940107733">
        <ele>1815.800048828125</ele>
        <time>2012-05-18T00:10:19Z</time>
      </trkpt>
      <trkpt lat="38.504519825801253" lon="-109.71427707932889">
        <ele>1817</ele>
        <time>2012-05-18T00:10:25Z</time>
      </trkpt>
      <trkpt lat="38.5045450553298" lon="-109.71426886506379">
        <ele>1817.199951171875</ele>
        <time>2012-05-18T00:10:26Z</time>
      </trkpt>
      <trkpt lat="38.504563746973872" lon="-109.71421589143574">
        <ele>1817.5999755859375</ele>
        <time>2012-05-18T00:10:28Z</time>
      </trkpt>
      <trkpt lat="38.504506247118115" lon="-109.71409837715328">
        <ele>1817.5999755859375</ele>
        <time>2012-05-18T00:10:33Z</time>
      </trkpt>
      <trkpt lat="38.504493841901422" lon="-109.71399703994393">
        <ele>1818</ele>
        <time>2012-05-18T00:10:38Z</time>
      </trkpt>
      <trkpt lat="38.504491914063692" lon="-109.7140162345022">
        <ele>1818</ele>
        <time>2012-05-18T00:10:43Z</time>
      </trkpt>
      <trkpt lat="38.504483951255679" lon="-109.71391623839736">
        <ele>1818.5999755859375</ele>
        <time>2012-05-18T00:11:10Z</time>
      </trkpt>
      <trkpt lat="38.504463164135814" lon="-109.71369889564812">
        <ele>1820</ele>
        <time>2012-05-18T00:11:16Z</time>
      </trkpt>
      <trkpt lat="38.50443122908473" lon="-109.71355774439871">
        <ele>1821</ele>
        <time>2012-05-18T00:11:21Z</time>
      </trkpt>
      <trkpt lat="38.504443969577551" lon="-109.71349756233394">
        <ele>1821.4000244140625</ele>
        <time>2012-05-18T00:11:23Z</time>
      </trkpt>
      <trkpt lat="38.504478419199586" lon="-109.71343310549855">
        <ele>1822</ele>
        <time>2012-05-18T00:11:25Z</time>
      </trkpt>
      <trkpt lat="38.504500882700086" lon="-109.71335808746517">
        <ele>1822.5999755859375</ele>
        <time>2012-05-18T00:11:27Z</time>
      </trkpt>
      <trkpt lat="38.504521837458014" lon="-109.71332615241408">
        <ele>1823</ele>
        <time>2012-05-18T00:11:29Z</time>
      </trkpt>
      <trkpt lat="38.504579169675708" lon="-109.71325440332294">
        <ele>1823.5999755859375</ele>
        <time>2012-05-18T00:11:34Z</time>
      </trkpt>
      <trkpt lat="38.504600711166859" lon="-109.71322406083345">
        <ele>1824</ele>
        <time>2012-05-18T00:11:36Z</time>
      </trkpt>
      <trkpt lat="38.504662150517106" lon="-109.71318768337369">
        <ele>1824.4000244140625</ele>
        <time>2012-05-18T00:11:41Z</time>
      </trkpt>
      <trkpt lat="38.50477178581059" lon="-109.71319799311459">
        <ele>1824.800048828125</ele>
        <time>2012-05-18T00:11:47Z</time>
      </trkpt>
      <trkpt lat="38.504925761371851" lon="-109.71325364895165">
        <ele>1825.199951171875</ele>
        <time>2012-05-18T00:11:54Z</time>
      </trkpt>
      <trkpt lat="38.505072444677353" lon="-109.71329933032393">
        <ele>1825.5999755859375</ele>
        <time>2012-05-18T00:12:01Z</time>
      </trkpt>
      <trkpt lat="38.505217954516411" lon="-109.71337594091892">
        <ele>1826</ele>
        <time>2012-05-18T00:12:08Z</time>
      </trkpt>
      <trkpt lat="38.505349215120077" lon="-109.71339991316199">
        <ele>1826.5999755859375</ele>
        <time>2012-05-18T00:12:13Z</time>
      </trkpt>
      <trkpt lat="38.505367236211896" lon="-109.71341935917735">
        <ele>1826.5999755859375</ele>
        <time>2012-05-18T00:12:14Z</time>
      </trkpt>
      <trkpt lat="38.505396321415901" lon="-109.7134942933917">
        <ele>1826.4000244140625</ele>
        <time>2012-05-18T00:12:17Z</time>
      </trkpt>
      <trkpt lat="38.505497490987182" lon="-109.71357836388052">
        <ele>1826.5999755859375</ele>
        <time>2012-05-18T00:12:22Z</time>
      </trkpt>
      <trkpt lat="38.505572592839599" lon="-109.71352010965347">
        <ele>1827.199951171875</ele>
        <time>2012-05-18T00:12:27Z</time>
      </trkpt>
      <trkpt lat="38.505658339709044" lon="-109.71340871416032">
        <ele>1828</ele>
        <time>2012-05-18T00:12:33Z</time>
      </trkpt>
      <trkpt lat="38.505748696625233" lon="-109.71325666643679">
        <ele>1828.800048828125</ele>
        <time>2012-05-18T00:12:41Z</time>
      </trkpt>
      <trkpt lat="38.505805274471641" lon="-109.71322783268988">
        <ele>1829.4000244140625</ele>
        <time>2012-05-18T00:12:45Z</time>
      </trkpt>
      <trkpt lat="38.505816087126732" lon="-109.7132389806211">
        <ele>1829.4000244140625</ele>
        <time>2012-05-18T00:12:46Z</time>
      </trkpt>
      <trkpt lat="38.505906611680984" lon="-109.71334987320006">
        <ele>1829.5999755859375</ele>
        <time>2012-05-18T00:12:53Z</time>
      </trkpt>
      <trkpt lat="38.506014151498675" lon="-109.7134165931493">
        <ele>1830</ele>
        <time>2012-05-18T00:13:00Z</time>
      </trkpt>
      <trkpt lat="38.506071818992496" lon="-109.7134842351079">
        <ele>1830</ele>
        <time>2012-05-18T00:13:05Z</time>
      </trkpt>
      <trkpt lat="38.50620886310935" lon="-109.7135894279927">
        <ele>1830.4000244140625</ele>
        <time>2012-05-18T00:13:10Z</time>
      </trkpt>
      <trkpt lat="38.506325539201498" lon="-109.71360309049487">
        <ele>1831</ele>
        <time>2012-05-18T00:13:13Z</time>
      </trkpt>
      <trkpt lat="38.506348337978125" lon="-109.71357769332826">
        <ele>1831.199951171875</ele>
        <time>2012-05-18T00:13:14Z</time>
      </trkpt>
      <trkpt lat="38.506425116211176" lon="-109.71352195367217">
        <ele>1831.800048828125</ele>
        <time>2012-05-18T00:13:18Z</time>
      </trkpt>
      <trkpt lat="38.506551012396812" lon="-109.71356612630188">
        <ele>1832.5999755859375</ele>
        <time>2012-05-18T00:13:23Z</time>
      </trkpt>
      <trkpt lat="38.506582025438547" lon="-109.71356713213027">
        <ele>1832.800048828125</ele>
        <time>2012-05-18T00:13:24Z</time>
      </trkpt>
      <trkpt lat="38.50672535598278" lon="-109.71361356787384">
        <ele>1833.4000244140625</ele>
        <time>2012-05-18T00:13:29Z</time>
      </trkpt>
      <trkpt lat="38.506869440898299" lon="-109.71376704052091">
        <ele>1833.800048828125</ele>
        <time>2012-05-18T00:13:35Z</time>
      </trkpt>
      <trkpt lat="38.506960636004806" lon="-109.7139713075012">
        <ele>1833.800048828125</ele>
        <time>2012-05-18T00:13:41Z</time>
      </trkpt>
      <trkpt lat="38.507042862474918" lon="-109.7142303083092">
        <ele>1833.800048828125</ele>
        <time>2012-05-18T00:13:48Z</time>
      </trkpt>
      <trkpt lat="38.507129196077585" lon="-109.71443264745176">
        <ele>1833.800048828125</ele>
        <time>2012-05-18T00:13:54Z</time>
      </trkpt>
      <trkpt lat="38.507212260738015" lon="-109.71458343788981">
        <ele>1833.800048828125</ele>
        <time>2012-05-18T00:13:59Z</time>
      </trkpt>
      <trkpt lat="38.507314939051867" lon="-109.71472458913922">
        <ele>1833.800048828125</ele>
        <time>2012-05-18T00:14:04Z</time>
      </trkpt>
      <trkpt lat="38.507457096129656" lon="-109.71477144397795">
        <ele>1834.199951171875</ele>
        <time>2012-05-18T00:14:09Z</time>
      </trkpt>
      <trkpt lat="38.507614340633154" lon="-109.7147932369262">
        <ele>1834.5999755859375</ele>
        <time>2012-05-18T00:14:14Z</time>
      </trkpt>
      <trkpt lat="38.507773093879223" lon="-109.71481142565608">
        <ele>1835</ele>
        <time>2012-05-18T00:14:19Z</time>
      </trkpt>
      <trkpt lat="38.507947186008096" lon="-109.71482517197728">
        <ele>1835.4000244140625</ele>
        <time>2012-05-18T00:14:24Z</time>
      </trkpt>
      <trkpt lat="38.507969230413437" lon="-109.7148603759706">
        <ele>1835.4000244140625</ele>
        <time>2012-05-18T00:14:25Z</time>
      </trkpt>
      <trkpt lat="38.508018180727959" lon="-109.71490706317127">
        <ele>1835.4000244140625</ele>
        <time>2012-05-18T00:14:27Z</time>
      </trkpt>
      <trkpt lat="38.508052546530962" lon="-109.71488351002336">
        <ele>1835.4000244140625</ele>
        <time>2012-05-18T00:14:28Z</time>
      </trkpt>
      <trkpt lat="38.508149357512593" lon="-109.71476867794991">
        <ele>1835.4000244140625</ele>
        <time>2012-05-18T00:14:31Z</time>
      </trkpt>
      <trkpt lat="38.50833535194397" lon="-109.71464797854424">
        <ele>1835.199951171875</ele>
        <time>2012-05-18T00:14:35Z</time>
      </trkpt>
      <trkpt lat="38.50847071968019" lon="-109.71457555890083">
        <ele>1835</ele>
        <time>2012-05-18T00:14:38Z</time>
      </trkpt>
      <trkpt lat="38.508559567853808" lon="-109.71444010734558">
        <ele>1834.800048828125</ele>
        <time>2012-05-18T00:14:41Z</time>
      </trkpt>
      <trkpt lat="38.508662413805723" lon="-109.71429535187781">
        <ele>1834.5999755859375</ele>
        <time>2012-05-18T00:14:44Z</time>
      </trkpt>
      <trkpt lat="38.508686721324921" lon="-109.71424145624042">
        <ele>1834.4000244140625</ele>
        <time>2012-05-18T00:14:45Z</time>
      </trkpt>
      <trkpt lat="38.508724607527256" lon="-109.71401397138834">
        <ele>1834.199951171875</ele>
        <time>2012-05-18T00:14:49Z</time>
      </trkpt>
      <trkpt lat="38.50872628390789" lon="-109.71395898610353">
        <ele>1834.199951171875</ele>
        <time>2012-05-18T00:14:50Z</time>
      </trkpt>
      <trkpt lat="38.508734749630094" lon="-109.71377718262374">
        <ele>1834.199951171875</ele>
        <time>2012-05-18T00:14:53Z</time>
      </trkpt>
      <trkpt lat="38.508845306932926" lon="-109.71357836388052">
        <ele>1834</ele>
        <time>2012-05-18T00:14:57Z</time>
      </trkpt>
      <trkpt lat="38.508925354108214" lon="-109.71341667696834">
        <ele>1833.800048828125</ele>
        <time>2012-05-18T00:15:00Z</time>
      </trkpt>
      <trkpt lat="38.508991068229079" lon="-109.71327435225248">
        <ele>1833.5999755859375</ele>
        <time>2012-05-18T00:15:02Z</time>
      </trkpt>
      <trkpt lat="38.509018141776323" lon="-109.7130198776722">
        <ele>1833.5999755859375</ele>
        <time>2012-05-18T00:15:05Z</time>
      </trkpt>
      <trkpt lat="38.509016381576657" lon="-109.71294041723013">
        <ele>1833.800048828125</ele>
        <time>2012-05-18T00:15:06Z</time>
      </trkpt>
      <trkpt lat="38.509032223373652" lon="-109.71279390156269">
        <ele>1833.5999755859375</ele>
        <time>2012-05-18T00:15:08Z</time>
      </trkpt>
      <trkpt lat="38.509049154818058" lon="-109.71265350468457">
        <ele>1833.4000244140625</ele>
        <time>2012-05-18T00:15:10Z</time>
      </trkpt>
      <trkpt lat="38.509035240858793" lon="-109.71235209144652">
        <ele>1833.5999755859375</ele>
        <time>2012-05-18T00:15:15Z</time>
      </trkpt>
      <trkpt lat="38.50892711430788" lon="-109.7121458966285">
        <ele>1833.5999755859375</ele>
        <time>2012-05-18T00:15:19Z</time>
      </trkpt>
      <trkpt lat="38.508891491219401" lon="-109.71210272982717">
        <ele>1833.5999755859375</ele>
        <time>2012-05-18T00:15:20Z</time>
      </trkpt>
      <trkpt lat="38.508860310539603" lon="-109.71205537207425">
        <ele>1833.5999755859375</ele>
        <time>2012-05-18T00:15:21Z</time>
      </trkpt>
      <trkpt lat="38.508810102939606" lon="-109.71196065656841">
        <ele>1833.5999755859375</ele>
        <time>2012-05-18T00:15:23Z</time>
      </trkpt>
      <trkpt lat="38.508792920038104" lon="-109.7119143884629">
        <ele>1833.5999755859375</ele>
        <time>2012-05-18T00:15:24Z</time>
      </trkpt>
      <trkpt lat="38.508769534528255" lon="-109.71180852502584">
        <ele>1833.5999755859375</ele>
        <time>2012-05-18T00:15:26Z</time>
      </trkpt>
      <trkpt lat="38.508810605853796" lon="-109.71170048229396">
        <ele>1833.4000244140625</ele>
        <time>2012-05-18T00:15:28Z</time>
      </trkpt>
      <trkpt lat="38.508874895051122" lon="-109.71154851838946">
        <ele>1833</ele>
        <time>2012-05-18T00:15:31Z</time>
      </trkpt>
      <trkpt lat="38.508959636092186" lon="-109.71160392276943">
        <ele>1833</ele>
        <time>2012-05-18T00:15:33Z</time>
      </trkpt>
      <trkpt lat="38.508996767923236" lon="-109.71165513619781">
        <ele>1833</ele>
        <time>2012-05-18T00:15:34Z</time>
      </trkpt>
      <trkpt lat="38.509047059342265" lon="-109.71168380230665">
        <ele>1833</ele>
        <time>2012-05-18T00:15:35Z</time>
      </trkpt>
      <trkpt lat="38.509098691865802" lon="-109.71167483367026">
        <ele>1832.800048828125</ele>
        <time>2012-05-18T00:15:36Z</time>
      </trkpt>
      <trkpt lat="38.509211679920554" lon="-109.71157064661384">
        <ele>1832.199951171875</ele>
        <time>2012-05-18T00:15:39Z</time>
      </trkpt>
      <trkpt lat="38.509246883913875" lon="-109.71156335435808">
        <ele>1832.199951171875</ele>
        <time>2012-05-18T00:15:40Z</time>
      </trkpt>
      <trkpt lat="38.50927010178566" lon="-109.71158975735307">
        <ele>1832.199951171875</ele>
        <time>2012-05-18T00:15:41Z</time>
      </trkpt>
      <trkpt lat="38.509316118434072" lon="-109.71173778176308">
        <ele>1832.199951171875</ele>
        <time>2012-05-18T00:15:44Z</time>
      </trkpt>
      <trkpt lat="38.509385352954268" lon="-109.7116987220943">
        <ele>1831.800048828125</ele>
        <time>2012-05-18T00:15:46Z</time>
      </trkpt>
      <trkpt lat="38.509412426501513" lon="-109.71166192553937">
        <ele>1831.5999755859375</ele>
        <time>2012-05-18T00:15:47Z</time>
      </trkpt>
      <trkpt lat="38.509448803961277" lon="-109.71165630966425">
        <ele>1831.4000244140625</ele>
        <time>2012-05-18T00:15:48Z</time>
      </trkpt>
      <trkpt lat="38.509500520303845" lon="-109.71165815368295">
        <ele>1831.199951171875</ele>
        <time>2012-05-18T00:15:49Z</time>
      </trkpt>
      <trkpt lat="38.50961409509182" lon="-109.71169243566692">
        <ele>1830.800048828125</ele>
        <time>2012-05-18T00:15:52Z</time>
      </trkpt>
      <trkpt lat="38.509687855839729" lon="-109.71181095577776">
        <ele>1831</ele>
        <time>2012-05-18T00:15:55Z</time>
      </trkpt>
      <trkpt lat="38.509785672649741" lon="-109.71177818253636">
        <ele>1830.800048828125</ele>
        <time>2012-05-18T00:15:58Z</time>
      </trkpt>
      <trkpt lat="38.509805873036385" lon="-109.71167609095573">
        <ele>1830.4000244140625</ele>
        <time>2012-05-18T00:16:00Z</time>
      </trkpt>
      <trkpt lat="38.50982372649014" lon="-109.71162211149931">
        <ele>1830.199951171875</ele>
        <time>2012-05-18T00:16:01Z</time>
      </trkpt>
      <trkpt lat="38.509844681248069" lon="-109.71156276762486">
        <ele>1830</ele>
        <time>2012-05-18T00:16:02Z</time>
      </trkpt>
      <trkpt lat="38.509901091456413" lon="-109.71145514398813">
        <ele>1829.199951171875</ele>
        <time>2012-05-18T00:16:04Z</time>
      </trkpt>
      <trkpt lat="38.509999494999647" lon="-109.71134425140917">
        <ele>1828</ele>
        <time>2012-05-18T00:16:06Z</time>
      </trkpt>
      <trkpt lat="38.510061101987958" lon="-109.71119069494307">
        <ele>1826.199951171875</ele>
        <time>2012-05-18T00:16:08Z</time>
      </trkpt>
      <trkpt lat="38.510093791410327" lon="-109.71113746985793">
        <ele>1825.5999755859375</ele>
        <time>2012-05-18T00:16:09Z</time>
      </trkpt>
      <trkpt lat="38.51017015054822" lon="-109.71113998442888">
        <ele>1825.4000244140625</ele>
        <time>2012-05-18T00:16:11Z</time>
      </trkpt>
      <trkpt lat="38.510262854397297" lon="-109.71115951426327">
        <ele>1825.5999755859375</ele>
        <time>2012-05-18T00:16:13Z</time>
      </trkpt>
      <trkpt lat="38.510340973734856" lon="-109.7112325206399">
        <ele>1826.4000244140625</ele>
        <time>2012-05-18T00:16:15Z</time>
      </trkpt>
      <trkpt lat="38.510484471917152" lon="-109.71128264442086">
        <ele>1826.199951171875</ele>
        <time>2012-05-18T00:16:18Z</time>
      </trkpt>
      <trkpt lat="38.510618582367897" lon="-109.71132572740316">
        <ele>1825.800048828125</ele>
        <time>2012-05-18T00:16:21Z</time>
      </trkpt>
      <trkpt lat="38.510667532682419" lon="-109.71133109182119">
        <ele>1825.5999755859375</ele>
        <time>2012-05-18T00:16:22Z</time>
      </trkpt>
      <trkpt lat="38.510730648413301" lon="-109.71122849732637">
        <ele>1824.4000244140625</ele>
        <time>2012-05-18T00:16:25Z</time>
      </trkpt>
      <trkpt lat="38.510668706148863" lon="-109.71108499914408">
        <ele>1823.5999755859375</ele>
        <time>2012-05-18T00:16:28Z</time>
      </trkpt>
      <trkpt lat="38.510648421943188" lon="-109.71084024757147">
        <ele>1821.5999755859375</ele>
        <time>2012-05-18T00:16:32Z</time>
      </trkpt>
      <trkpt lat="38.51069251075387" lon="-109.71076020039618">
        <ele>1821</ele>
        <time>2012-05-18T00:16:35Z</time>
      </trkpt>
      <trkpt lat="38.510746322572231" lon="-109.71064419485629">
        <ele>1819.800048828125</ele>
        <time>2012-05-18T00:16:38Z</time>
      </trkpt>
      <trkpt lat="38.510794099420309" lon="-109.71064335666597">
        <ele>1819.5999755859375</ele>
        <time>2012-05-18T00:16:41Z</time>
      </trkpt>
      <trkpt lat="38.51083517074585" lon="-109.71072390675545">
        <ele>1819.800048828125</ele>
        <time>2012-05-18T00:16:43Z</time>
      </trkpt>
      <trkpt lat="38.510897029191256" lon="-109.71081384457648">
        <ele>1820.199951171875</ele>
        <time>2012-05-18T00:16:45Z</time>
      </trkpt>
      <trkpt lat="38.510983027517796" lon="-109.71093303523958">
        <ele>1820.800048828125</ele>
        <time>2012-05-18T00:16:48Z</time>
      </trkpt>
      <trkpt lat="38.511014459654689" lon="-109.71092750318348">
        <ele>1820.800048828125</ele>
        <time>2012-05-18T00:16:49Z</time>
      </trkpt>
      <trkpt lat="38.511035917326808" lon="-109.71083605661988">
        <ele>1820</ele>
        <time>2012-05-18T00:16:52Z</time>
      </trkpt>
      <trkpt lat="38.511076066643" lon="-109.71066229976714">
        <ele>1818.5999755859375</ele>
        <time>2012-05-18T00:16:56Z</time>
      </trkpt>
      <trkpt lat="38.511024937033653" lon="-109.71053740940988">
        <ele>1818.199951171875</ele>
        <time>2012-05-18T00:16:59Z</time>
      </trkpt>
      <trkpt lat="38.511003646999598" lon="-109.71048443578184">
        <ele>1818</ele>
        <time>2012-05-18T00:17:00Z</time>
      </trkpt>
      <trkpt lat="38.510905494913459" lon="-109.71029927954078">
        <ele>1817.4000244140625</ele>
        <time>2012-05-18T00:17:04Z</time>
      </trkpt>
      <trkpt lat="38.510831817984581" lon="-109.71018142998219">
        <ele>1817.199951171875</ele>
        <time>2012-05-18T00:17:08Z</time>
      </trkpt>
      <trkpt lat="38.51074137724936" lon="-109.71008746884763">
        <ele>1817.199951171875</ele>
        <time>2012-05-18T00:17:11Z</time>
      </trkpt>
      <trkpt lat="38.51053518243134" lon="-109.71001102589071">
        <ele>1816.5999755859375</ele>
        <time>2012-05-18T00:17:16Z</time>
      </trkpt>
      <trkpt lat="38.510406268760562" lon="-109.71006450243294">
        <ele>1817</ele>
        <time>2012-05-18T00:17:20Z</time>
      </trkpt>
      <trkpt lat="38.510224968194962" lon="-109.71016567200422">
        <ele>1816.5999755859375</ele>
        <time>2012-05-18T00:17:26Z</time>
      </trkpt>
      <trkpt lat="38.510058587417006" lon="-109.71012434922159">
        <ele>1815.4000244140625</ele>
        <time>2012-05-18T00:17:30Z</time>
      </trkpt>
      <trkpt lat="38.509913077577949" lon="-109.71002443693578">
        <ele>1813.5999755859375</ele>
        <time>2012-05-18T00:17:34Z</time>
      </trkpt>
      <trkpt lat="38.509802604094148" lon="-109.71000063233078">
        <ele>1813</ele>
        <time>2012-05-18T00:17:37Z</time>
      </trkpt>
      <trkpt lat="38.509781984612346" lon="-109.70997087657452">
        <ele>1812.5999755859375</ele>
        <time>2012-05-18T00:17:38Z</time>
      </trkpt>
      <trkpt lat="38.509825570508838" lon="-109.70986836589873">
        <ele>1811.4000244140625</ele>
        <time>2012-05-18T00:17:41Z</time>
      </trkpt>
      <trkpt lat="38.50994735956192" lon="-109.70986660569906">
        <ele>1812</ele>
        <time>2012-05-18T00:17:44Z</time>
      </trkpt>
      <trkpt lat="38.510000919923186" lon="-109.709787145257">
        <ele>1811.199951171875</ele>
        <time>2012-05-18T00:17:47Z</time>
      </trkpt>
      <trkpt lat="38.510078201070428" lon="-109.70973651856184">
        <ele>1811.199951171875</ele>
        <time>2012-05-18T00:17:50Z</time>
      </trkpt>
      <trkpt lat="38.510215664282441" lon="-109.70969536341727">
        <ele>1811.5999755859375</ele>
        <time>2012-05-18T00:17:54Z</time>
      </trkpt>
      <trkpt lat="38.510324126109481" lon="-109.70965135842562">
        <ele>1811.800048828125</ele>
        <time>2012-05-18T00:17:58Z</time>
      </trkpt>
      <trkpt lat="38.510346673429012" lon="-109.70963048748672">
        <ele>1811.800048828125</ele>
        <time>2012-05-18T00:17:59Z</time>
      </trkpt>
      <trkpt lat="38.510437617078424" lon="-109.70949159935117">
        <ele>1810.800048828125</ele>
        <time>2012-05-18T00:18:04Z</time>
      </trkpt>
      <trkpt lat="38.510437868535519" lon="-109.70937148667872">
        <ele>1809.5999755859375</ele>
        <time>2012-05-18T00:18:07Z</time>
      </trkpt>
      <trkpt lat="38.510507354512811" lon="-109.70921843312681">
        <ele>1808.5999755859375</ele>
        <time>2012-05-18T00:18:10Z</time>
      </trkpt>
      <trkpt lat="38.510539876297116" lon="-109.7091771941632">
        <ele>1808.4000244140625</ele>
        <time>2012-05-18T00:18:11Z</time>
      </trkpt>
      <trkpt lat="38.510660072788596" lon="-109.70907770097256">
        <ele>1808.199951171875</ele>
        <time>2012-05-18T00:18:14Z</time>
      </trkpt>
      <trkpt lat="38.510706089437008" lon="-109.70905976369977">
        <ele>1808.4000244140625</ele>
        <time>2012-05-18T00:18:15Z</time>
      </trkpt>
      <trkpt lat="38.510796278715134" lon="-109.70902933739126">
        <ele>1808.800048828125</ele>
        <time>2012-05-18T00:18:17Z</time>
      </trkpt>
      <trkpt lat="38.510916391387582" lon="-109.70901584252715">
        <ele>1809.5999755859375</ele>
        <time>2012-05-18T00:18:20Z</time>
      </trkpt>
      <trkpt lat="38.510954948142171" lon="-109.70901978202164">
        <ele>1810</ele>
        <time>2012-05-18T00:18:21Z</time>
      </trkpt>
      <trkpt lat="38.510991325601935" lon="-109.70901349559426">
        <ele>1810.199951171875</ele>
        <time>2012-05-18T00:18:22Z</time>
      </trkpt>
      <trkpt lat="38.511093836277723" lon="-109.70898910425603">
        <ele>1811</ele>
        <time>2012-05-18T00:18:25Z</time>
      </trkpt>
      <trkpt lat="38.511224007233977" lon="-109.70892640762031">
        <ele>1811.5999755859375</ele>
        <time>2012-05-18T00:18:29Z</time>
      </trkpt>
      <trkpt lat="38.511261558160186" lon="-109.70874954946339">
        <ele>1810.800048828125</ele>
        <time>2012-05-18T00:18:33Z</time>
      </trkpt>
      <trkpt lat="38.511289050802588" lon="-109.70848627388477">
        <ele>1809.800048828125</ele>
        <time>2012-05-18T00:18:38Z</time>
      </trkpt>
      <trkpt lat="38.511294582858682" lon="-109.70835920423269">
        <ele>1809.4000244140625</ele>
        <time>2012-05-18T00:18:40Z</time>
      </trkpt>
      <trkpt lat="38.511292822659016" lon="-109.70817714929581">
        <ele>1808.4000244140625</ele>
        <time>2012-05-18T00:18:43Z</time>
      </trkpt>
      <trkpt lat="38.511302629485726" lon="-109.70812208019197">
        <ele>1808.199951171875</ele>
        <time>2012-05-18T00:18:44Z</time>
      </trkpt>
      <trkpt lat="38.511349568143487" lon="-109.70797615125775">
        <ele>1808</ele>
        <time>2012-05-18T00:18:47Z</time>
      </trkpt>
      <trkpt lat="38.511429280042648" lon="-109.70790549181402">
        <ele>1808.4000244140625</ele>
        <time>2012-05-18T00:18:51Z</time>
      </trkpt>
      <trkpt lat="38.51147722452879" lon="-109.70793432556093">
        <ele>1809</ele>
        <time>2012-05-18T00:18:53Z</time>
      </trkpt>
      <trkpt lat="38.511520894244313" lon="-109.7079789172858">
        <ele>1809.800048828125</ele>
        <time>2012-05-18T00:18:55Z</time>
      </trkpt>
      <trkpt lat="38.511596415191889" lon="-109.70814613625407">
        <ele>1811.4000244140625</ele>
        <time>2012-05-18T00:19:00Z</time>
      </trkpt>
      <trkpt lat="38.511708062142134" lon="-109.70825786702335">
        <ele>1813</ele>
        <time>2012-05-18T00:19:05Z</time>
      </trkpt>
      <trkpt lat="38.511850219219923" lon="-109.70830991864204">
        <ele>1814.5999755859375</ele>
        <time>2012-05-18T00:19:11Z</time>
      </trkpt>
      <trkpt lat="38.511944683268666" lon="-109.70818938687444">
        <ele>1815.4000244140625</ele>
        <time>2012-05-18T00:19:15Z</time>
      </trkpt>
      <trkpt lat="38.512067059054971" lon="-109.70804077573121">
        <ele>1816.199951171875</ele>
        <time>2012-05-18T00:19:20Z</time>
      </trkpt>
      <trkpt lat="38.512166971340775" lon="-109.70785595476627">
        <ele>1816.800048828125</ele>
        <time>2012-05-18T00:19:26Z</time>
      </trkpt>
      <trkpt lat="38.512203767895699" lon="-109.70764456316829">
        <ele>1817.199951171875</ele>
        <time>2012-05-18T00:19:32Z</time>
      </trkpt>
      <trkpt lat="38.512305440381169" lon="-109.70747063867748">
        <ele>1818.4000244140625</ele>
        <time>2012-05-18T00:19:38Z</time>
      </trkpt>
      <trkpt lat="38.51237534545362" lon="-109.70731322653592">
        <ele>1818.4000244140625</ele>
        <time>2012-05-18T00:19:44Z</time>
      </trkpt>
      <trkpt lat="38.512474419549108" lon="-109.7071622684598">
        <ele>1817.800048828125</ele>
        <time>2012-05-18T00:19:50Z</time>
      </trkpt>
      <trkpt lat="38.512485232204199" lon="-109.70712371170521">
        <ele>1817.800048828125</ele>
        <time>2012-05-18T00:19:51Z</time>
      </trkpt>
      <trkpt lat="38.512489926069975" lon="-109.70702740363777">
        <ele>1817.800048828125</ele>
        <time>2012-05-18T00:19:53Z</time>
      </trkpt>
      <trkpt lat="38.512526303529739" lon="-109.7069550678134">
        <ele>1818.5999755859375</ele>
        <time>2012-05-18T00:19:55Z</time>
      </trkpt>
      <trkpt lat="38.512554550543427" lon="-109.70695054158568">
        <ele>1819</ele>
        <time>2012-05-18T00:19:56Z</time>
      </trkpt>
      <trkpt lat="38.512664185836911" lon="-109.70695632509887">
        <ele>1819.800048828125</ele>
        <time>2012-05-18T00:20:00Z</time>
      </trkpt>
      <trkpt lat="38.512694947421551" lon="-109.70695205032825">
        <ele>1819.800048828125</ele>
        <time>2012-05-18T00:20:01Z</time>
      </trkpt>
      <trkpt lat="38.51293190382421" lon="-109.70693436451256">
        <ele>1819.4000244140625</ele>
        <time>2012-05-18T00:20:09Z</time>
      </trkpt>
      <trkpt lat="38.512952188029885" lon="-109.70695003867149">
        <ele>1819.199951171875</ele>
        <time>2012-05-18T00:20:10Z</time>
      </trkpt>
      <trkpt lat="38.512999629601836" lon="-109.70703201368451">
        <ele>1819.4000244140625</ele>
        <time>2012-05-18T00:20:13Z</time>
      </trkpt>
      <trkpt lat="38.51307506673038" lon="-109.70711784437299">
        <ele>1819.800048828125</ele>
        <time>2012-05-18T00:20:17Z</time>
      </trkpt>
      <trkpt lat="38.513095518574119" lon="-109.70719931647182">
        <ele>1819.5999755859375</ele>
        <time>2012-05-18T00:20:19Z</time>
      </trkpt>
      <trkpt lat="38.513157209381461" lon="-109.70729914493859">
        <ele>1819.199951171875</ele>
        <time>2012-05-18T00:20:22Z</time>
      </trkpt>
      <trkpt lat="38.513340270146728" lon="-109.70746384933591">
        <ele>1817.5999755859375</ele>
        <time>2012-05-18T00:20:29Z</time>
      </trkpt>
      <trkpt lat="38.513462813571095" lon="-109.70746343024075">
        <ele>1816.199951171875</ele>
        <time>2012-05-18T00:20:33Z</time>
      </trkpt>
      <trkpt lat="38.513583345338702" lon="-109.70757868140936">
        <ele>1817</ele>
        <time>2012-05-18T00:20:38Z</time>
      </trkpt>
      <trkpt lat="38.513619303703308" lon="-109.70769711770117">
        <ele>1818.5999755859375</ele>
        <time>2012-05-18T00:20:41Z</time>
      </trkpt>
      <trkpt lat="38.513652160763741" lon="-109.7077751532197">
        <ele>1818.5999755859375</ele>
        <time>2012-05-18T00:20:43Z</time>
      </trkpt>
      <trkpt lat="38.513770680874586" lon="-109.7079049050808">
        <ele>1818.800048828125</ele>
        <time>2012-05-18T00:20:48Z</time>
      </trkpt>
      <trkpt lat="38.513915603980422" lon="-109.70795611850917">
        <ele>1817.4000244140625</ele>
        <time>2012-05-18T00:20:53Z</time>
      </trkpt>
      <trkpt lat="38.514017779380083" lon="-109.70806097611785">
        <ele>1817.4000244140625</ele>
        <time>2012-05-18T00:20:57Z</time>
      </trkpt>
      <trkpt lat="38.514082571491599" lon="-109.7082878742367">
        <ele>1817.5999755859375</ele>
        <time>2012-05-18T00:21:03Z</time>
      </trkpt>
      <trkpt lat="38.514139233157039" lon="-109.70851200632751">
        <ele>1817.5999755859375</ele>
        <time>2012-05-18T00:21:08Z</time>
      </trkpt>
      <trkpt lat="38.514179298654199" lon="-109.70871333964169">
        <ele>1817.5999755859375</ele>
        <time>2012-05-18T00:21:13Z</time>
      </trkpt>
      <trkpt lat="38.514189524576068" lon="-109.70883579924703">
        <ele>1818</ele>
        <time>2012-05-18T00:21:17Z</time>
      </trkpt>
      <trkpt lat="38.514099754393101" lon="-109.70897284336388">
        <ele>1818.800048828125</ele>
        <time>2012-05-18T00:21:21Z</time>
      </trkpt>
      <trkpt lat="38.514042841270566" lon="-109.70904869958758">
        <ele>1819.199951171875</ele>
        <time>2012-05-18T00:21:23Z</time>
      </trkpt>
      <trkpt lat="38.51401325315237" lon="-109.70913796685636">
        <ele>1819.199951171875</ele>
        <time>2012-05-18T00:21:25Z</time>
      </trkpt>
      <trkpt lat="38.513999925926328" lon="-109.70932647585869">
        <ele>1819</ele>
        <time>2012-05-18T00:21:29Z</time>
      </trkpt>
      <trkpt lat="38.513932786881924" lon="-109.70946854911745">
        <ele>1818.800048828125</ele>
        <time>2012-05-18T00:21:33Z</time>
      </trkpt>
      <trkpt lat="38.513825079426169" lon="-109.70961355604231">
        <ele>1818.5999755859375</ele>
        <time>2012-05-18T00:21:37Z</time>
      </trkpt>
      <trkpt lat="38.513794736936688" lon="-109.70964616164565">
        <ele>1818.4000244140625</ele>
        <time>2012-05-18T00:21:38Z</time>
      </trkpt>
      <trkpt lat="38.513739164918661" lon="-109.70974733121693">
        <ele>1817.800048828125</ele>
        <time>2012-05-18T00:21:41Z</time>
      </trkpt>
      <trkpt lat="38.513641515746713" lon="-109.70991513691843">
        <ele>1817</ele>
        <time>2012-05-18T00:21:45Z</time>
      </trkpt>
      <trkpt lat="38.513646712526679" lon="-109.71007741056383">
        <ele>1816</ele>
        <time>2012-05-18T00:21:48Z</time>
      </trkpt>
      <trkpt lat="38.513647550716996" lon="-109.71028679050505">
        <ele>1814.5999755859375</ele>
        <time>2012-05-18T00:21:52Z</time>
      </trkpt>
      <trkpt lat="38.513603461906314" lon="-109.71039793454111">
        <ele>1814.199951171875</ele>
        <time>2012-05-18T00:21:54Z</time>
      </trkpt>
      <trkpt lat="38.51358326151967" lon="-109.71046473830938">
        <ele>1814</ele>
        <time>2012-05-18T00:21:56Z</time>
      </trkpt>
      <trkpt lat="38.51357982493937" lon="-109.71049231477082">
        <ele>1814</ele>
        <time>2012-05-18T00:21:57Z</time>
      </trkpt>
      <trkpt lat="38.513597846031189" lon="-109.7106674965471">
        <ele>1813</ele>
        <time>2012-05-18T00:22:02Z</time>
      </trkpt>
      <trkpt lat="38.513628104701638" lon="-109.71069716848433">
        <ele>1812.4000244140625</ele>
        <time>2012-05-18T00:22:03Z</time>
      </trkpt>
      <trkpt lat="38.513689879328012" lon="-109.71076380461454">
        <ele>1811.4000244140625</ele>
        <time>2012-05-18T00:22:05Z</time>
      </trkpt>
      <trkpt lat="38.513714773580432" lon="-109.71092741936445">
        <ele>1810.5999755859375</ele>
        <time>2012-05-18T00:22:08Z</time>
      </trkpt>
      <trkpt lat="38.513830611482263" lon="-109.71109807491302">
        <ele>1808.4000244140625</ele>
        <time>2012-05-18T00:22:12Z</time>
      </trkpt>
      <trkpt lat="38.513907892629504" lon="-109.71117845736444">
        <ele>1807.4000244140625</ele>
        <time>2012-05-18T00:22:14Z</time>
      </trkpt>
      <trkpt lat="38.514029262587428" lon="-109.71128876321018">
        <ele>1805.800048828125</ele>
        <time>2012-05-18T00:22:17Z</time>
      </trkpt>
      <trkpt lat="38.51405038498342" lon="-109.71138959750533">
        <ele>1805.199951171875</ele>
        <time>2012-05-18T00:22:20Z</time>
      </trkpt>
      <trkpt lat="38.514053737744689" lon="-109.71143955364823">
        <ele>1805</ele>
        <time>2012-05-18T00:22:21Z</time>
      </trkpt>
      <trkpt lat="38.514052648097277" lon="-109.71149303019047">
        <ele>1804.800048828125</ele>
        <time>2012-05-18T00:22:22Z</time>
      </trkpt>
      <trkpt lat="38.5140410810709" lon="-109.71160165965557">
        <ele>1804.800048828125</ele>
        <time>2012-05-18T00:22:24Z</time>
      </trkpt>
      <trkpt lat="38.514080224558711" lon="-109.71175840124488">
        <ele>1804.800048828125</ele>
        <time>2012-05-18T00:22:28Z</time>
      </trkpt>
      <trkpt lat="38.514214251190424" lon="-109.71185127273202">
        <ele>1805.5999755859375</ele>
        <time>2012-05-18T00:22:32Z</time>
      </trkpt>
      <trkpt lat="38.514377446845174" lon="-109.71196979284286">
        <ele>1806</ele>
        <time>2012-05-18T00:22:37Z</time>
      </trkpt>
      <trkpt lat="38.514534691348672" lon="-109.71210130490363">
        <ele>1805.800048828125</ele>
        <time>2012-05-18T00:22:42Z</time>
      </trkpt>
      <trkpt lat="38.514560759067535" lon="-109.71215553581715">
        <ele>1805.800048828125</ele>
        <time>2012-05-18T00:22:44Z</time>
      </trkpt>
      <trkpt lat="38.514565704390407" lon="-109.7121958527714">
        <ele>1806</ele>
        <time>2012-05-18T00:22:45Z</time>
      </trkpt>
      <trkpt lat="38.514629658311605" lon="-109.71233650110662">
        <ele>1806.5999755859375</ele>
        <time>2012-05-18T00:22:49Z</time>
      </trkpt>
      <trkpt lat="38.514763684943318" lon="-109.71249039284885">
        <ele>1808.4000244140625</ele>
        <time>2012-05-18T00:22:55Z</time>
      </trkpt>
      <trkpt lat="38.514873404055834" lon="-109.71251243725419">
        <ele>1808.4000244140625</ele>
        <time>2012-05-18T00:22:59Z</time>
      </trkpt>
      <trkpt lat="38.515055039897561" lon="-109.71245443448424">
        <ele>1807.199951171875</ele>
        <time>2012-05-18T00:23:04Z</time>
      </trkpt>
      <trkpt lat="38.515089405700564" lon="-109.71247237175703">
        <ele>1807.199951171875</ele>
        <time>2012-05-18T00:23:05Z</time>
      </trkpt>
      <trkpt lat="38.515157299116254" lon="-109.7125016245991">
        <ele>1807</ele>
        <time>2012-05-18T00:23:07Z</time>
      </trkpt>
      <trkpt lat="38.515271041542292" lon="-109.71248377114534">
        <ele>1805.800048828125</ele>
        <time>2012-05-18T00:23:10Z</time>
      </trkpt>
      <trkpt lat="38.515344467014074" lon="-109.71252107061446">
        <ele>1805.5999755859375</ele>
        <time>2012-05-18T00:23:12Z</time>
      </trkpt>
      <trkpt lat="38.515418730676174" lon="-109.71257496625185">
        <ele>1805.800048828125</ele>
        <time>2012-05-18T00:23:14Z</time>
      </trkpt>
      <trkpt lat="38.515480253845453" lon="-109.71262500621378">
        <ele>1805.5999755859375</ele>
        <time>2012-05-18T00:23:16Z</time>
      </trkpt>
      <trkpt lat="38.515486037358642" lon="-109.7126602102071">
        <ele>1805.800048828125</ele>
        <time>2012-05-18T00:23:17Z</time>
      </trkpt>
      <trkpt lat="38.515508584678173" lon="-109.71284905448556">
        <ele>1806.4000244140625</ele>
        <time>2012-05-18T00:23:21Z</time>
      </trkpt>
      <trkpt lat="38.515556361526251" lon="-109.71292650327086">
        <ele>1805.800048828125</ele>
        <time>2012-05-18T00:23:23Z</time>
      </trkpt>
      <trkpt lat="38.515576981008053" lon="-109.71300361678004">
        <ele>1805.4000244140625</ele>
        <time>2012-05-18T00:23:25Z</time>
      </trkpt>
      <trkpt lat="38.515578573569655" lon="-109.7131977416575">
        <ele>1805.5999755859375</ele>
        <time>2012-05-18T00:23:30Z</time>
      </trkpt>
      <trkpt lat="38.515622159466147" lon="-109.71334668807685">
        <ele>1805.800048828125</ele>
        <time>2012-05-18T00:23:34Z</time>
      </trkpt>
      <trkpt lat="38.515709331259131" lon="-109.71348591148853">
        <ele>1806</ele>
        <time>2012-05-18T00:23:38Z</time>
      </trkpt>
      <trkpt lat="38.515751408413053" lon="-109.71354064531624">
        <ele>1806.800048828125</ele>
        <time>2012-05-18T00:23:40Z</time>
      </trkpt>
      <trkpt lat="38.515768507495522" lon="-109.71362337470055">
        <ele>1808</ele>
        <time>2012-05-18T00:23:42Z</time>
      </trkpt>
      <trkpt lat="38.515850566327572" lon="-109.71375823952258">
        <ele>1809.4000244140625</ele>
        <time>2012-05-18T00:23:46Z</time>
      </trkpt>
      <trkpt lat="38.515945784747601" lon="-109.71387407742441">
        <ele>1809.5999755859375</ele>
        <time>2012-05-18T00:23:50Z</time>
      </trkpt>
      <trkpt lat="38.515932122245431" lon="-109.71405076794326">
        <ele>1811.199951171875</ele>
        <time>2012-05-18T00:23:54Z</time>
      </trkpt>
      <trkpt lat="38.515940587967634" lon="-109.714131988585">
        <ele>1811.4000244140625</ele>
        <time>2012-05-18T00:23:56Z</time>
      </trkpt>
      <trkpt lat="38.515945700928569" lon="-109.71424941904843">
        <ele>1812</ele>
        <time>2012-05-18T00:23:59Z</time>
      </trkpt>
      <trkpt lat="38.515963889658451" lon="-109.71427875570953">
        <ele>1811.800048828125</ele>
        <time>2012-05-18T00:24:00Z</time>
      </trkpt>
      <trkpt lat="38.516017617657781" lon="-109.71433122642338">
        <ele>1811.4000244140625</ele>
        <time>2012-05-18T00:24:02Z</time>
      </trkpt>
      <trkpt lat="38.516091713681817" lon="-109.71450163051486">
        <ele>1810.4000244140625</ele>
        <time>2012-05-18T00:24:06Z</time>
      </trkpt>
      <trkpt lat="38.516095317900181" lon="-109.71471981145442">
        <ele>1809.5999755859375</ele>
        <time>2012-05-18T00:24:10Z</time>
      </trkpt>
      <trkpt lat="38.516015941277146" lon="-109.71483808010817">
        <ele>1810</ele>
        <time>2012-05-18T00:24:13Z</time>
      </trkpt>
      <trkpt lat="38.515978055074811" lon="-109.71485526300967">
        <ele>1810.4000244140625</ele>
        <time>2012-05-18T00:24:14Z</time>
      </trkpt>
      <trkpt lat="38.515835897997022" lon="-109.71499691717327">
        <ele>1810.800048828125</ele>
        <time>2012-05-18T00:24:19Z</time>
      </trkpt>
      <trkpt lat="38.515754928812385" lon="-109.71518048085272">
        <ele>1810.199951171875</ele>
        <time>2012-05-18T00:24:23Z</time>
      </trkpt>
      <trkpt lat="38.515737159177661" lon="-109.7152316942811">
        <ele>1809.800048828125</ele>
        <time>2012-05-18T00:24:24Z</time>
      </trkpt>
      <trkpt lat="38.515694998204708" lon="-109.71532255411148">
        <ele>1809.4000244140625</ele>
        <time>2012-05-18T00:24:26Z</time>
      </trkpt>
      <trkpt lat="38.51561151444912" lon="-109.7154254000634">
        <ele>1809</ele>
        <time>2012-05-18T00:24:29Z</time>
      </trkpt>
      <trkpt lat="38.51558712311089" lon="-109.71546496264637">
        <ele>1808.5999755859375</ele>
        <time>2012-05-18T00:24:30Z</time>
      </trkpt>
      <trkpt lat="38.51550254970789" lon="-109.71566084772348">
        <ele>1807.199951171875</ele>
        <time>2012-05-18T00:24:34Z</time>
      </trkpt>
      <trkpt lat="38.515490395948291" lon="-109.71572170034051">
        <ele>1806.800048828125</ele>
        <time>2012-05-18T00:24:35Z</time>
      </trkpt>
      <trkpt lat="38.515467010438442" lon="-109.71584231592715">
        <ele>1805.800048828125</ele>
        <time>2012-05-18T00:24:37Z</time>
      </trkpt>
      <trkpt lat="38.515383442863822" lon="-109.71597919240594">
        <ele>1805</ele>
        <time>2012-05-18T00:24:40Z</time>
      </trkpt>
      <trkpt lat="38.515304233878851" lon="-109.71612218767405">
        <ele>1806.199951171875</ele>
        <time>2012-05-18T00:24:44Z</time>
      </trkpt>
      <trkpt lat="38.515299959108233" lon="-109.71615697257221">
        <ele>1806.199951171875</ele>
        <time>2012-05-18T00:24:45Z</time>
      </trkpt>
      <trkpt lat="38.515313621610403" lon="-109.71628831699491">
        <ele>1806.5999755859375</ele>
        <time>2012-05-18T00:24:48Z</time>
      </trkpt>
      <trkpt lat="38.515338767319918" lon="-109.71631086431444">
        <ele>1806.5999755859375</ele>
        <time>2012-05-18T00:24:49Z</time>
      </trkpt>
      <trkpt lat="38.515384029597044" lon="-109.7163596469909">
        <ele>1806.5999755859375</ele>
        <time>2012-05-18T00:24:51Z</time>
      </trkpt>
      <trkpt lat="38.515405654907227" lon="-109.7164389397949">
        <ele>1807</ele>
        <time>2012-05-18T00:24:53Z</time>
      </trkpt>
      <trkpt lat="38.515520989894867" lon="-109.7166651673615">
        <ele>1807.800048828125</ele>
        <time>2012-05-18T00:24:58Z</time>
      </trkpt>
      <trkpt lat="38.515642359852791" lon="-109.71677027642727">
        <ele>1808</ele>
        <time>2012-05-18T00:25:02Z</time>
      </trkpt>
      <trkpt lat="38.515679407864809" lon="-109.71689751371741">
        <ele>1808.199951171875</ele>
        <time>2012-05-18T00:25:05Z</time>
      </trkpt>
      <trkpt lat="38.515708912163973" lon="-109.71692726947367">
        <ele>1808.199951171875</ele>
        <time>2012-05-18T00:25:06Z</time>
      </trkpt>
      <trkpt lat="38.515831455588341" lon="-109.7170343901962">
        <ele>1808</ele>
        <time>2012-05-18T00:25:10Z</time>
      </trkpt>
      <trkpt lat="38.515795832499862" lon="-109.71710974350572">
        <ele>1808.199951171875</ele>
        <time>2012-05-18T00:25:12Z</time>
      </trkpt>
      <trkpt lat="38.515769764780998" lon="-109.7171451151371">
        <ele>1808.4000244140625</ele>
        <time>2012-05-18T00:25:13Z</time>
      </trkpt>
      <trkpt lat="38.515737326815724" lon="-109.7172762081027">
        <ele>1808.5999755859375</ele>
        <time>2012-05-18T00:25:16Z</time>
      </trkpt>
      <trkpt lat="38.51576498709619" lon="-109.71740176901221">
        <ele>1808.5999755859375</ele>
        <time>2012-05-18T00:25:19Z</time>
      </trkpt>
      <trkpt lat="38.515793737024069" lon="-109.71742926165462">
        <ele>1808.4000244140625</ele>
        <time>2012-05-18T00:25:20Z</time>
      </trkpt>
      <trkpt lat="38.515820559114218" lon="-109.71755155362189">
        <ele>1808.4000244140625</ele>
        <time>2012-05-18T00:25:23Z</time>
      </trkpt>
      <trkpt lat="38.515813099220395" lon="-109.71774844452739">
        <ele>1808.199951171875</ele>
        <time>2012-05-18T00:25:27Z</time>
      </trkpt>
      <trkpt lat="38.515808153897524" lon="-109.71780183725059">
        <ele>1808.199951171875</ele>
        <time>2012-05-18T00:25:28Z</time>
      </trkpt>
      <trkpt lat="38.515793904662132" lon="-109.71812135539949">
        <ele>1808</ele>
        <time>2012-05-18T00:25:34Z</time>
      </trkpt>
      <trkpt lat="38.515782002359629" lon="-109.71822638064623">
        <ele>1807.800048828125</ele>
        <time>2012-05-18T00:25:36Z</time>
      </trkpt>
      <trkpt lat="38.515731962397695" lon="-109.71832143142819">
        <ele>1807.800048828125</ele>
        <time>2012-05-18T00:25:38Z</time>
      </trkpt>
      <trkpt lat="38.515710001811385" lon="-109.71837063319981">
        <ele>1807.800048828125</ele>
        <time>2012-05-18T00:25:39Z</time>
      </trkpt>
      <trkpt lat="38.515616375952959" lon="-109.7185558732599">
        <ele>1808.4000244140625</ele>
        <time>2012-05-18T00:25:43Z</time>
      </trkpt>
      <trkpt lat="38.515587290748954" lon="-109.71859518438578">
        <ele>1808.5999755859375</ele>
        <time>2012-05-18T00:25:44Z</time>
      </trkpt>
      <trkpt lat="38.51545661687851" lon="-109.71879534423351">
        <ele>1809.4000244140625</ele>
        <time>2012-05-18T00:25:49Z</time>
      </trkpt>
      <trkpt lat="38.515433231368661" lon="-109.71883423626423">
        <ele>1809.5999755859375</ele>
        <time>2012-05-18T00:25:50Z</time>
      </trkpt>
      <trkpt lat="38.515347987413406" lon="-109.71893389709294">
        <ele>1810.199951171875</ele>
        <time>2012-05-18T00:25:53Z</time>
      </trkpt>
      <trkpt lat="38.515327787026763" lon="-109.71897496841848">
        <ele>1810.199951171875</ele>
        <time>2012-05-18T00:25:54Z</time>
      </trkpt>
      <trkpt lat="38.515237933024764" lon="-109.71919784322381">
        <ele>1810.800048828125</ele>
        <time>2012-05-18T00:25:59Z</time>
      </trkpt>
      <trkpt lat="38.515205243602395" lon="-109.71936573274434">
        <ele>1811</ele>
        <time>2012-05-18T00:26:03Z</time>
      </trkpt>
      <trkpt lat="38.515181941911578" lon="-109.7195575106889">
        <ele>1811.199951171875</ele>
        <time>2012-05-18T00:26:06Z</time>
      </trkpt>
      <trkpt lat="38.515146654099226" lon="-109.71965147182345">
        <ele>1811.5999755859375</ele>
        <time>2012-05-18T00:26:08Z</time>
      </trkpt>
      <trkpt lat="38.515084376558661" lon="-109.71979941241443">
        <ele>1812</ele>
        <time>2012-05-18T00:26:11Z</time>
      </trkpt>
      <trkpt lat="38.515073144808412" lon="-109.71991374157369">
        <ele>1812.199951171875</ele>
        <time>2012-05-18T00:26:13Z</time>
      </trkpt>
      <trkpt lat="38.51500416174531" lon="-109.72008833661675">
        <ele>1812.800048828125</ele>
        <time>2012-05-18T00:26:17Z</time>
      </trkpt>
      <trkpt lat="38.514976752921939" lon="-109.72011960111558">
        <ele>1813</ele>
        <time>2012-05-18T00:26:18Z</time>
      </trkpt>
      <trkpt lat="38.514901483431458" lon="-109.72021758556366">
        <ele>1813.5999755859375</ele>
        <time>2012-05-18T00:26:21Z</time>
      </trkpt>
      <trkpt lat="38.514867620542645" lon="-109.72029813565314">
        <ele>1814</ele>
        <time>2012-05-18T00:26:23Z</time>
      </trkpt>
      <trkpt lat="38.514883713796735" lon="-109.72042830660939">
        <ele>1814</ele>
        <time>2012-05-18T00:26:26Z</time>
      </trkpt>
      <trkpt lat="38.514880780130625" lon="-109.7205919213593">
        <ele>1814.4000244140625</ele>
        <time>2012-05-18T00:26:30Z</time>
      </trkpt>
      <trkpt lat="38.514880109578371" lon="-109.7208525147289">
        <ele>1814.800048828125</ele>
        <time>2012-05-18T00:26:36Z</time>
      </trkpt>
      <trkpt lat="38.514908356592059" lon="-109.72101353108883">
        <ele>1815</ele>
        <time>2012-05-18T00:26:40Z</time>
      </trkpt>
      <trkpt lat="38.514946410432458" lon="-109.72121394239366">
        <ele>1815.199951171875</ele>
        <time>2012-05-18T00:26:45Z</time>
      </trkpt>
      <trkpt lat="38.514964180067182" lon="-109.72128728404641">
        <ele>1815.199951171875</ele>
        <time>2012-05-18T00:26:47Z</time>
      </trkpt>
      <trkpt lat="38.514954792335629" lon="-109.72140463069081">
        <ele>1815.5999755859375</ele>
        <time>2012-05-18T00:26:50Z</time>
      </trkpt>
      <trkpt lat="38.514999719336629" lon="-109.72159422934055">
        <ele>1816</ele>
        <time>2012-05-18T00:26:55Z</time>
      </trkpt>
      <trkpt lat="38.515107929706573" lon="-109.72175901755691">
        <ele>1816.199951171875</ele>
        <time>2012-05-18T00:27:00Z</time>
      </trkpt>
      <trkpt lat="38.51526215672493" lon="-109.72185247577727">
        <ele>1816</ele>
        <time>2012-05-18T00:27:05Z</time>
      </trkpt>
      <trkpt lat="38.515461646020412" lon="-109.72191693261266">
        <ele>1815.4000244140625</ele>
        <time>2012-05-18T00:27:10Z</time>
      </trkpt>
      <trkpt lat="38.515614783391356" lon="-109.72209806554019">
        <ele>1815.5999755859375</ele>
        <time>2012-05-18T00:27:15Z</time>
      </trkpt>
      <trkpt lat="38.515675133094192" lon="-109.72217249684036">
        <ele>1815.800048828125</ele>
        <time>2012-05-18T00:27:17Z</time>
      </trkpt>
      <trkpt lat="38.515802621841431" lon="-109.72224391065538">
        <ele>1815.5999755859375</ele>
        <time>2012-05-18T00:27:20Z</time>
      </trkpt>
      <trkpt lat="38.51603027433157" lon="-109.72225438803434">
        <ele>1814.5999755859375</ele>
        <time>2012-05-18T00:27:25Z</time>
      </trkpt>
      <trkpt lat="38.516179556027055" lon="-109.72238363698125">
        <ele>1814.4000244140625</ele>
        <time>2012-05-18T00:27:29Z</time>
      </trkpt>
      <trkpt lat="38.516229009255767" lon="-109.72259201109409">
        <ele>1815.199951171875</ele>
        <time>2012-05-18T00:27:33Z</time>
      </trkpt>
      <trkpt lat="38.51628877222538" lon="-109.72264867275953">
        <ele>1815</ele>
        <time>2012-05-18T00:27:36Z</time>
      </trkpt>
      <trkpt lat="38.516416177153587" lon="-109.72269401885569">
        <ele>1814.199951171875</ele>
        <time>2012-05-18T00:27:40Z</time>
      </trkpt>
      <trkpt lat="38.516577864065766" lon="-109.72281287424266">
        <ele>1813.199951171875</ele>
        <time>2012-05-18T00:27:45Z</time>
      </trkpt>
      <trkpt lat="38.516718428581953" lon="-109.7229955997318">
        <ele>1812.800048828125</ele>
        <time>2012-05-18T00:27:50Z</time>
      </trkpt>
      <trkpt lat="38.516822448000312" lon="-109.72323104739189">
        <ele>1813.4000244140625</ele>
        <time>2012-05-18T00:27:56Z</time>
      </trkpt>
      <trkpt lat="38.516871063038707" lon="-109.72342357970774">
        <ele>1813.800048828125</ele>
        <time>2012-05-18T00:28:01Z</time>
      </trkpt>
      <trkpt lat="38.516955301165581" lon="-109.72352768294513">
        <ele>1813.800048828125</ele>
        <time>2012-05-18T00:28:05Z</time>
      </trkpt>
      <trkpt lat="38.517086980864406" lon="-109.7236037068069">
        <ele>1813.5999755859375</ele>
        <time>2012-05-18T00:28:09Z</time>
      </trkpt>
      <trkpt lat="38.517211703583598" lon="-109.72378383390605">
        <ele>1814.199951171875</ele>
        <time>2012-05-18T00:28:14Z</time>
      </trkpt>
      <trkpt lat="38.517327373847365" lon="-109.72393588162959">
        <ele>1814.800048828125</ele>
        <time>2012-05-18T00:28:19Z</time>
      </trkpt>
      <trkpt lat="38.517366265878081" lon="-109.72394501790404">
        <ele>1814.5999755859375</ele>
        <time>2012-05-18T00:28:20Z</time>
      </trkpt>
      <trkpt lat="38.517430303618312" lon="-109.72396253608167">
        <ele>1814.5999755859375</ele>
        <time>2012-05-18T00:28:22Z</time>
      </trkpt>
      <trkpt lat="38.517571119591594" lon="-109.72403168678284">
        <ele>1814.800048828125</ele>
        <time>2012-05-18T00:28:26Z</time>
      </trkpt>
      <trkpt lat="38.517611520364881" lon="-109.72410066984594">
        <ele>1815</ele>
        <time>2012-05-18T00:28:28Z</time>
      </trkpt>
      <trkpt lat="38.51764814928174" lon="-109.72414635121822">
        <ele>1815.199951171875</ele>
        <time>2012-05-18T00:28:30Z</time>
      </trkpt>
      <trkpt lat="38.517681090161204" lon="-109.72419806756079">
        <ele>1815.5999755859375</ele>
        <time>2012-05-18T00:28:33Z</time>
      </trkpt>
      <trkpt lat="38.517692070454359" lon="-109.72424022853374">
        <ele>1815.800048828125</ele>
        <time>2012-05-18T00:28:35Z</time>
      </trkpt>
      <trkpt lat="38.517709169536829" lon="-109.72427610307932">
        <ele>1816</ele>
        <time>2012-05-18T00:28:37Z</time>
      </trkpt>
      <trkpt lat="38.517770692706108" lon="-109.72438456490636">
        <ele>1816.5999755859375</ele>
        <time>2012-05-18T00:28:42Z</time>
      </trkpt>
      <trkpt lat="38.5177918151021" lon="-109.7244375385344">
        <ele>1816.800048828125</ele>
        <time>2012-05-18T00:28:45Z</time>
      </trkpt>
      <trkpt lat="38.517793491482735" lon="-109.72447785548866">
        <ele>1817</ele>
        <time>2012-05-18T00:28:47Z</time>
      </trkpt>
      <trkpt lat="38.517831126227975" lon="-109.72454583272338">
        <ele>1817.4000244140625</ele>
        <time>2012-05-18T00:28:51Z</time>
      </trkpt>
      <trkpt lat="38.51786507293582" lon="-109.72458413802087">
        <ele>1817.4000244140625</ele>
        <time>2012-05-18T00:28:53Z</time>
      </trkpt>
      <trkpt lat="38.517920980229974" lon="-109.72460517659783">
        <ele>1817.5999755859375</ele>
        <time>2012-05-18T00:28:55Z</time>
      </trkpt>
      <trkpt lat="38.517967080697417" lon="-109.72458749078214">
        <ele>1817.4000244140625</ele>
        <time>2012-05-18T00:28:57Z</time>
      </trkpt>
      <trkpt lat="38.518044864758849" lon="-109.72458782605827">
        <ele>1817.4000244140625</ele>
        <time>2012-05-18T00:29:02Z</time>
      </trkpt>
      <trkpt lat="38.51805760525167" lon="-109.72463836893439">
        <ele>1817.5999755859375</ele>
        <time>2012-05-18T00:29:05Z</time>
      </trkpt>
      <trkpt lat="38.518067328259349" lon="-109.72468312829733">
        <ele>1818</ele>
        <time>2012-05-18T00:29:07Z</time>
      </trkpt>
      <trkpt lat="38.518137065693736" lon="-109.72481480799615">
        <ele>1818.4000244140625</ele>
        <time>2012-05-18T00:29:14Z</time>
      </trkpt>
      <trkpt lat="38.518210826441646" lon="-109.7249039914459">
        <ele>1818.800048828125</ele>
        <time>2012-05-18T00:29:20Z</time>
      </trkpt>
      <trkpt lat="38.51833219639957" lon="-109.72497330978513">
        <ele>1818.800048828125</ele>
        <time>2012-05-18T00:29:27Z</time>
      </trkpt>
      <trkpt lat="38.518457589671016" lon="-109.72509333863854">
        <ele>1819.199951171875</ele>
        <time>2012-05-18T00:29:35Z</time>
      </trkpt>
      <trkpt lat="38.518515340983868" lon="-109.7251251898706">
        <ele>1819.4000244140625</ele>
        <time>2012-05-18T00:29:39Z</time>
      </trkpt>
      <trkpt lat="38.518567644059658" lon="-109.72521990537643">
        <ele>1819.800048828125</ele>
        <time>2012-05-18T00:29:44Z</time>
      </trkpt>
      <trkpt lat="38.51865422911942" lon="-109.7252475656569">
        <ele>1820</ele>
        <time>2012-05-18T00:29:49Z</time>
      </trkpt>
      <trkpt lat="38.518744586035609" lon="-109.72518646158278">
        <ele>1819.800048828125</ele>
        <time>2012-05-18T00:29:53Z</time>
      </trkpt>
      <trkpt lat="38.518789848312736" lon="-109.7251299675554">
        <ele>1819.5999755859375</ele>
        <time>2012-05-18T00:29:58Z</time>
      </trkpt>
      <trkpt lat="38.518764283508062" lon="-109.72513533197343">
        <ele>1819.5999755859375</ele>
        <time>2012-05-18T00:30:26Z</time>
      </trkpt>
      <trkpt lat="38.518760846927762" lon="-109.72512502223253">
        <ele>1819.5999755859375</ele>
        <time>2012-05-18T00:30:30Z</time>
      </trkpt>
      <trkpt lat="38.518758667632937" lon="-109.72512636333704">
        <ele>1819.5999755859375</ele>
        <time>2012-05-18T00:31:53Z</time>
      </trkpt>
      <trkpt lat="38.518761014565825" lon="-109.72515829838812">
        <ele>1819.5999755859375</ele>
        <time>2012-05-18T00:32:57Z</time>
      </trkpt>
      <trkpt lat="38.518765456974506" lon="-109.7251701168716">
        <ele>1819.800048828125</ele>
        <time>2012-05-18T00:33:03Z</time>
      </trkpt>
      <trkpt lat="38.518770653754473" lon="-109.72517581656575">
        <ele>1819.800048828125</ele>
        <time>2012-05-18T00:33:58Z</time>
      </trkpt>
      <trkpt lat="38.51877685636282" lon="-109.72513834945858">
        <ele>1819.5999755859375</ele>
        <time>2012-05-18T00:34:12Z</time>
      </trkpt>
      <trkpt lat="38.518797475844622" lon="-109.72511077299714">
        <ele>1819.4000244140625</ele>
        <time>2012-05-18T00:34:17Z</time>
      </trkpt>
      <trkpt lat="38.518867800012231" lon="-109.7250004671514">
        <ele>1819</ele>
        <time>2012-05-18T00:34:21Z</time>
      </trkpt>
      <trkpt lat="38.518987828865647" lon="-109.72489016130567">
        <ele>1818.5999755859375</ele>
        <time>2012-05-18T00:34:26Z</time>
      </trkpt>
      <trkpt lat="38.51914088241756" lon="-109.72482863813639">
        <ele>1818.4000244140625</ele>
        <time>2012-05-18T00:34:31Z</time>
      </trkpt>
      <trkpt lat="38.519372558221221" lon="-109.7247951105237">
        <ele>1818.199951171875</ele>
        <time>2012-05-18T00:34:38Z</time>
      </trkpt>
      <trkpt lat="38.51948487572372" lon="-109.72470693290234">
        <ele>1817.800048828125</ele>
        <time>2012-05-18T00:34:42Z</time>
      </trkpt>
      <trkpt lat="38.519513290375471" lon="-109.72472738474607">
        <ele>1818</ele>
        <time>2012-05-18T00:34:43Z</time>
      </trkpt>
      <trkpt lat="38.519564839079976" lon="-109.72478907555342">
        <ele>1818.4000244140625</ele>
        <time>2012-05-18T00:34:45Z</time>
      </trkpt>
      <trkpt lat="38.519690483808517" lon="-109.72476284019649">
        <ele>1818.4000244140625</ele>
        <time>2012-05-18T00:34:48Z</time>
      </trkpt>
      <trkpt lat="38.519779248163104" lon="-109.72475630231202">
        <ele>1818.4000244140625</ele>
        <time>2012-05-18T00:34:50Z</time>
      </trkpt>
      <trkpt lat="38.519941940903664" lon="-109.72471414133906">
        <ele>1818.4000244140625</ele>
        <time>2012-05-18T00:34:54Z</time>
      </trkpt>
      <trkpt lat="38.520006146281958" lon="-109.72468002699316">
        <ele>1818.4000244140625</ele>
        <time>2012-05-18T00:34:56Z</time>
      </trkpt>
      <trkpt lat="38.520079907029867" lon="-109.72466795705259">
        <ele>1818.4000244140625</ele>
        <time>2012-05-18T00:34:58Z</time>
      </trkpt>
      <trkpt lat="38.520150566473603" lon="-109.7246325854212">
        <ele>1818.4000244140625</ele>
        <time>2012-05-18T00:35:00Z</time>
      </trkpt>
      <trkpt lat="38.520243689417839" lon="-109.72464029677212">
        <ele>1818.4000244140625</ele>
        <time>2012-05-18T00:35:03Z</time>
      </trkpt>
      <trkpt lat="38.520427504554391" lon="-109.72464649938047">
        <ele>1818.5999755859375</ele>
        <time>2012-05-18T00:35:08Z</time>
      </trkpt>
      <trkpt lat="38.520500343292952" lon="-109.72459008917212">
        <ele>1818.4000244140625</ele>
        <time>2012-05-18T00:35:10Z</time>
      </trkpt>
      <trkpt lat="38.520524399355054" lon="-109.72456402145326">
        <ele>1818.4000244140625</ele>
        <time>2012-05-18T00:35:11Z</time>
      </trkpt>
      <trkpt lat="38.520599752664566" lon="-109.72458011470735">
        <ele>1818.4000244140625</ele>
        <time>2012-05-18T00:35:14Z</time>
      </trkpt>
      <trkpt lat="38.520631184801459" lon="-109.7245881613344">
        <ele>1818.4000244140625</ele>
        <time>2012-05-18T00:35:15Z</time>
      </trkpt>
      <trkpt lat="38.520750124007463" lon="-109.72458782605827">
        <ele>1818.4000244140625</ele>
        <time>2012-05-18T00:35:19Z</time>
      </trkpt>
      <trkpt lat="38.520878702402115" lon="-109.72455664537847">
        <ele>1818.4000244140625</ele>
        <time>2012-05-18T00:35:24Z</time>
      </trkpt>
      <trkpt lat="38.520966293290257" lon="-109.7245670389384">
        <ele>1818.199951171875</ele>
        <time>2012-05-18T00:35:31Z</time>
      </trkpt>
      <trkpt lat="38.521013651043177" lon="-109.7245569806546">
        <ele>1818.199951171875</ele>
        <time>2012-05-18T00:35:37Z</time>
      </trkpt>
      <trkpt lat="38.521130494773388" lon="-109.72462286241353">
        <ele>1818.4000244140625</ele>
        <time>2012-05-18T00:35:41Z</time>
      </trkpt>
      <trkpt lat="38.521140720695257" lon="-109.724663766101">
        <ele>1818.4000244140625</ele>
        <time>2012-05-18T00:35:42Z</time>
      </trkpt>
      <trkpt lat="38.521119179204106" lon="-109.72473945468664">
        <ele>1818.5999755859375</ele>
        <time>2012-05-18T00:35:44Z</time>
      </trkpt>
      <trkpt lat="38.52102161385119" lon="-109.72476007416844">
        <ele>1818.5999755859375</ele>
        <time>2012-05-18T00:35:47Z</time>
      </trkpt>
      <trkpt lat="38.520871326327324" lon="-109.72480592317879">
        <ele>1818.800048828125</ele>
        <time>2012-05-18T00:35:51Z</time>
      </trkpt>
      <trkpt lat="38.52076219394803" lon="-109.72489007748663">
        <ele>1819</ele>
        <time>2012-05-18T00:35:55Z</time>
      </trkpt>
      <trkpt lat="38.520671417936683" lon="-109.7249108646065">
        <ele>1819</ele>
        <time>2012-05-18T00:35:58Z</time>
      </trkpt>
      <trkpt lat="38.520609475672245" lon="-109.72490960732102">
        <ele>1819</ele>
        <time>2012-05-18T00:36:00Z</time>
      </trkpt>
      <trkpt lat="38.520517023280263" lon="-109.72488521598279">
        <ele>1819</ele>
        <time>2012-05-18T00:36:03Z</time>
      </trkpt>
      <trkpt lat="38.520485088229179" lon="-109.72485872916877">
        <ele>1819</ele>
        <time>2012-05-18T00:36:04Z</time>
      </trkpt>
      <trkpt lat="38.520378805696964" lon="-109.72482897341251">
        <ele>1819</ele>
        <time>2012-05-18T00:36:07Z</time>
      </trkpt>
      <trkpt lat="38.520302949473262" lon="-109.72486115992069">
        <ele>1819</ele>
        <time>2012-05-18T00:36:09Z</time>
      </trkpt>
      <trkpt lat="38.520138161256909" lon="-109.72493709996343">
        <ele>1819.199951171875</ele>
        <time>2012-05-18T00:36:13Z</time>
      </trkpt>
      <trkpt lat="38.519794922322035" lon="-109.72503122873604">
        <ele>1819.199951171875</ele>
        <time>2012-05-18T00:36:21Z</time>
      </trkpt>
      <trkpt lat="38.519658129662275" lon="-109.72501060925424">
        <ele>1819.199951171875</ele>
        <time>2012-05-18T00:36:25Z</time>
      </trkpt>
      <trkpt lat="38.519658045843244" lon="-109.72499149851501">
        <ele>1819.199951171875</ele>
        <time>2012-05-18T00:36:26Z</time>
      </trkpt>
      <trkpt lat="38.519659135490656" lon="-109.72497993148863">
        <ele>1819</ele>
        <time>2012-05-18T00:36:29Z</time>
      </trkpt>
      <trkpt lat="38.519638013094664" lon="-109.7249663528055">
        <ele>1819</ele>
        <time>2012-05-18T00:36:32Z</time>
      </trkpt>
      <trkpt lat="38.519625440239906" lon="-109.72497071139514">
        <ele>1819</ele>
        <time>2012-05-18T00:36:34Z</time>
      </trkpt>
      <trkpt lat="38.519627451896667" lon="-109.72497079521418">
        <ele>1819</ele>
        <time>2012-05-18T00:36:35Z</time>
      </trkpt>
      <trkpt lat="38.519613957032561" lon="-109.72503156401217">
        <ele>1819.199951171875</ele>
        <time>2012-05-18T00:36:47Z</time>
      </trkpt>
      <trkpt lat="38.519604904577136" lon="-109.72504111938179">
        <ele>1819.4000244140625</ele>
        <time>2012-05-18T00:36:54Z</time>
      </trkpt>
      <trkpt lat="38.519610352814198" lon="-109.72499527037144">
        <ele>1819.199951171875</ele>
        <time>2012-05-18T00:37:00Z</time>
      </trkpt>
      <trkpt lat="38.519635498523712" lon="-109.7249420452863">
        <ele>1819</ele>
        <time>2012-05-18T00:37:09Z</time>
      </trkpt>
      <trkpt lat="38.519659973680973" lon="-109.72499233670533">
        <ele>1819.199951171875</ele>
        <time>2012-05-18T00:38:39Z</time>
      </trkpt>
      <trkpt lat="38.519667265936732" lon="-109.72501588985324">
        <ele>1819.199951171875</ele>
        <time>2012-05-18T00:38:48Z</time>
      </trkpt>
      <trkpt lat="38.519636923447251" lon="-109.72504665143788">
        <ele>1819.4000244140625</ele>
        <time>2012-05-18T00:39:24Z</time>
      </trkpt>
      <trkpt lat="38.519543800503016" lon="-109.72505821846426">
        <ele>1819.4000244140625</ele>
        <time>2012-05-18T00:39:29Z</time>
      </trkpt>
      <trkpt lat="38.519383119419217" lon="-109.72511387430131">
        <ele>1819.5999755859375</ele>
        <time>2012-05-18T00:39:34Z</time>
      </trkpt>
      <trkpt lat="38.519089166074991" lon="-109.72524421289563">
        <ele>1820.199951171875</ele>
        <time>2012-05-18T00:39:42Z</time>
      </trkpt>
      <trkpt lat="38.518801499158144" lon="-109.72544521093369">
        <ele>1820.800048828125</ele>
        <time>2012-05-18T00:39:50Z</time>
      </trkpt>
      <trkpt lat="38.518631178885698" lon="-109.72547479905188">
        <ele>1820.800048828125</ele>
        <time>2012-05-18T00:39:54Z</time>
      </trkpt>
      <trkpt lat="38.518587341532111" lon="-109.72547136247158">
        <ele>1820.800048828125</ele>
        <time>2012-05-18T00:39:55Z</time>
      </trkpt>
      <trkpt lat="38.518463289365172" lon="-109.72542509436607">
        <ele>1820.5999755859375</ele>
        <time>2012-05-18T00:39:58Z</time>
      </trkpt>
      <trkpt lat="38.518337393179536" lon="-109.72539726644754">
        <ele>1820.4000244140625</ele>
        <time>2012-05-18T00:40:01Z</time>
      </trkpt>
      <trkpt lat="38.518255418166518" lon="-109.7254098393023">
        <ele>1820.4000244140625</ele>
        <time>2012-05-18T00:40:03Z</time>
      </trkpt>
      <trkpt lat="38.51809473708272" lon="-109.72532702609897">
        <ele>1820.199951171875</ele>
        <time>2012-05-18T00:40:07Z</time>
      </trkpt>
      <trkpt lat="38.518053749576211" lon="-109.72529735416174">
        <ele>1820</ele>
        <time>2012-05-18T00:40:08Z</time>
      </trkpt>
      <trkpt lat="38.518008487299085" lon="-109.7252771537751">
        <ele>1820</ele>
        <time>2012-05-18T00:40:09Z</time>
      </trkpt>
      <trkpt lat="38.517873790115118" lon="-109.72525645047426">
        <ele>1820</ele>
        <time>2012-05-18T00:40:12Z</time>
      </trkpt>
      <trkpt lat="38.517828695476055" lon="-109.7252457216382">
        <ele>1820</ele>
        <time>2012-05-18T00:40:13Z</time>
      </trkpt>
      <trkpt lat="38.517782343551517" lon="-109.7252562828362">
        <ele>1820</ele>
        <time>2012-05-18T00:40:14Z</time>
      </trkpt>
      <trkpt lat="38.517696596682072" lon="-109.72528796643019">
        <ele>1820</ele>
        <time>2012-05-18T00:40:16Z</time>
      </trkpt>
      <trkpt lat="38.517557037994266" lon="-109.72525033168495">
        <ele>1820</ele>
        <time>2012-05-18T00:40:19Z</time>
      </trkpt>
      <trkpt lat="38.51749031804502" lon="-109.72524102777243">
        <ele>1820</ele>
        <time>2012-05-18T00:40:20Z</time>
      </trkpt>
      <trkpt lat="38.517297366634011" lon="-109.72521093674004">
        <ele>1819.800048828125</ele>
        <time>2012-05-18T00:40:23Z</time>
      </trkpt>
      <trkpt lat="38.517237938940525" lon="-109.72519777715206">
        <ele>1819.800048828125</ele>
        <time>2012-05-18T00:40:24Z</time>
      </trkpt>
      <trkpt lat="38.517114641144872" lon="-109.72502896562219">
        <ele>1819.4000244140625</ele>
        <time>2012-05-18T00:40:27Z</time>
      </trkpt>
      <trkpt lat="38.516943482682109" lon="-109.72483693622053">
        <ele>1819</ele>
        <time>2012-05-18T00:40:31Z</time>
      </trkpt>
      <trkpt lat="38.516725888475776" lon="-109.72482989542186">
        <ele>1819</ele>
        <time>2012-05-18T00:40:35Z</time>
      </trkpt>
      <trkpt lat="38.516517765820026" lon="-109.72473995760083">
        <ele>1819</ele>
        <time>2012-05-18T00:40:39Z</time>
      </trkpt>
      <trkpt lat="38.516472754999995" lon="-109.72469712607563">
        <ele>1819</ele>
        <time>2012-05-18T00:40:40Z</time>
      </trkpt>
      <trkpt lat="38.516314253211021" lon="-109.72462353296578">
        <ele>1819</ele>
        <time>2012-05-18T00:40:43Z</time>
      </trkpt>
      <trkpt lat="38.516128677874804" lon="-109.72448397427797">
        <ele>1819</ele>
        <time>2012-05-18T00:40:47Z</time>
      </trkpt>
      <trkpt lat="38.51610311307013" lon="-109.72435187548399">
        <ele>1819</ele>
        <time>2012-05-18T00:40:49Z</time>
      </trkpt>
      <trkpt lat="38.516064556315541" lon="-109.72430493682623">
        <ele>1819</ele>
        <time>2012-05-18T00:40:50Z</time>
      </trkpt>
      <trkpt lat="38.516094563528895" lon="-109.72411391325295">
        <ele>1818.800048828125</ele>
        <time>2012-05-18T00:40:53Z</time>
      </trkpt>
      <trkpt lat="38.516111578792334" lon="-109.7240561619401">
        <ele>1818.800048828125</ele>
        <time>2012-05-18T00:40:54Z</time>
      </trkpt>
      <trkpt lat="38.516098670661449" lon="-109.72400419414043">
        <ele>1818.800048828125</ele>
        <time>2012-05-18T00:40:55Z</time>
      </trkpt>
      <trkpt lat="38.516072686761618" lon="-109.7239610273391">
        <ele>1818.800048828125</ele>
        <time>2012-05-18T00:40:56Z</time>
      </trkpt>
      <trkpt lat="38.516014600172639" lon="-109.7238767053932">
        <ele>1819</ele>
        <time>2012-05-18T00:40:58Z</time>
      </trkpt>
      <trkpt lat="38.515932708978653" lon="-109.72392657771707">
        <ele>1819.199951171875</ele>
        <time>2012-05-18T00:41:00Z</time>
      </trkpt>
      <trkpt lat="38.515779739245772" lon="-109.7238801419735">
        <ele>1819.4000244140625</ele>
        <time>2012-05-18T00:41:03Z</time>
      </trkpt>
      <trkpt lat="38.515745289623737" lon="-109.72384309396148">
        <ele>1819.4000244140625</ele>
        <time>2012-05-18T00:41:04Z</time>
      </trkpt>
      <trkpt lat="38.515647388994694" lon="-109.72378676757216">
        <ele>1819.5999755859375</ele>
        <time>2012-05-18T00:41:06Z</time>
      </trkpt>
      <trkpt lat="38.515520067885518" lon="-109.72370680421591">
        <ele>1819.800048828125</ele>
        <time>2012-05-18T00:41:09Z</time>
      </trkpt>
      <trkpt lat="38.515372462570667" lon="-109.72364117391407">
        <ele>1820</ele>
        <time>2012-05-18T00:41:12Z</time>
      </trkpt>
      <trkpt lat="38.515229551121593" lon="-109.72349658608437">
        <ele>1820.199951171875</ele>
        <time>2012-05-18T00:41:16Z</time>
      </trkpt>
      <trkpt lat="38.51520742289722" lon="-109.72332484088838">
        <ele>1820.199951171875</ele>
        <time>2012-05-18T00:41:19Z</time>
      </trkpt>
      <trkpt lat="38.5152274556458" lon="-109.72308796830475">
        <ele>1819.800048828125</ele>
        <time>2012-05-18T00:41:23Z</time>
      </trkpt>
      <trkpt lat="38.515244135633111" lon="-109.72291513346136">
        <ele>1819.5999755859375</ele>
        <time>2012-05-18T00:41:26Z</time>
      </trkpt>
      <trkpt lat="38.515222426503897" lon="-109.72286031581461">
        <ele>1819.4000244140625</ele>
        <time>2012-05-18T00:41:27Z</time>
      </trkpt>
      <trkpt lat="38.515109773725271" lon="-109.72275319509208">
        <ele>1819.4000244140625</ele>
        <time>2012-05-18T00:41:30Z</time>
      </trkpt>
      <trkpt lat="38.515022853389382" lon="-109.72274674102664">
        <ele>1819.5999755859375</ele>
        <time>2012-05-18T00:41:32Z</time>
      </trkpt>
      <trkpt lat="38.51498999632895" lon="-109.72271287813783">
        <ele>1819.5999755859375</ele>
        <time>2012-05-18T00:41:33Z</time>
      </trkpt>
      <trkpt lat="38.51485806517303" lon="-109.72256351262331">
        <ele>1819.5999755859375</ele>
        <time>2012-05-18T00:41:37Z</time>
      </trkpt>
      <trkpt lat="38.514832919463515" lon="-109.72252663224936">
        <ele>1819.4000244140625</ele>
        <time>2012-05-18T00:41:38Z</time>
      </trkpt>
      <trkpt lat="38.514796458184719" lon="-109.72250282764435">
        <ele>1819.4000244140625</ele>
        <time>2012-05-18T00:41:39Z</time>
      </trkpt>
      <trkpt lat="38.514683805406094" lon="-109.72243040800095">
        <ele>1819.5999755859375</ele>
        <time>2012-05-18T00:41:42Z</time>
      </trkpt>
      <trkpt lat="38.51453217677772" lon="-109.72228917293251">
        <ele>1819.4000244140625</ele>
        <time>2012-05-18T00:41:46Z</time>
      </trkpt>
      <trkpt lat="38.514367640018463" lon="-109.72224416211247">
        <ele>1819.5999755859375</ele>
        <time>2012-05-18T00:41:49Z</time>
      </trkpt>
      <trkpt lat="38.51427661255002" lon="-109.72217844799161">
        <ele>1819.800048828125</ele>
        <time>2012-05-18T00:41:51Z</time>
      </trkpt>
      <trkpt lat="38.514193715527654" lon="-109.72211306914687">
        <ele>1820</ele>
        <time>2012-05-18T00:41:53Z</time>
      </trkpt>
      <trkpt lat="38.514051139354706" lon="-109.72205950878561">
        <ele>1820.5999755859375</ele>
        <time>2012-05-18T00:41:56Z</time>
      </trkpt>
      <trkpt lat="38.513955920934677" lon="-109.72193218767643">
        <ele>1820.800048828125</ele>
        <time>2012-05-18T00:41:59Z</time>
      </trkpt>
      <trkpt lat="38.513894230127335" lon="-109.72187527455389">
        <ele>1821.199951171875</ele>
        <time>2012-05-18T00:42:01Z</time>
      </trkpt>
      <trkpt lat="38.513871431350708" lon="-109.72183428704739">
        <ele>1821.199951171875</ele>
        <time>2012-05-18T00:42:02Z</time>
      </trkpt>
      <trkpt lat="38.51384662091732" lon="-109.72173026762903">
        <ele>1821.199951171875</ele>
        <time>2012-05-18T00:42:04Z</time>
      </trkpt>
      <trkpt lat="38.513727094978094" lon="-109.72159892320633">
        <ele>1821.800048828125</ele>
        <time>2012-05-18T00:42:08Z</time>
      </trkpt>
      <trkpt lat="38.513627098873258" lon="-109.72163169644773">
        <ele>1822.4000244140625</ele>
        <time>2012-05-18T00:42:11Z</time>
      </trkpt>
      <trkpt lat="38.513503633439541" lon="-109.72159875556827">
        <ele>1823</ele>
        <time>2012-05-18T00:42:15Z</time>
      </trkpt>
      <trkpt lat="38.513475218787789" lon="-109.72157394513488">
        <ele>1823.199951171875</ele>
        <time>2012-05-18T00:42:16Z</time>
      </trkpt>
      <trkpt lat="38.513437081128359" lon="-109.72157176584005">
        <ele>1823.4000244140625</ele>
        <time>2012-05-18T00:42:17Z</time>
      </trkpt>
      <trkpt lat="38.513364410027862" lon="-109.72155533730984">
        <ele>1823.800048828125</ele>
        <time>2012-05-18T00:42:19Z</time>
      </trkpt>
      <trkpt lat="38.513212697580457" lon="-109.72152080386877">
        <ele>1824.5999755859375</ele>
        <time>2012-05-18T00:42:23Z</time>
      </trkpt>
      <trkpt lat="38.513108929619193" lon="-109.72156698815525">
        <ele>1825.199951171875</ele>
        <time>2012-05-18T00:42:26Z</time>
      </trkpt>
      <trkpt lat="38.513063499704003" lon="-109.7215745318681">
        <ele>1825.4000244140625</ele>
        <time>2012-05-18T00:42:27Z</time>
      </trkpt>
      <trkpt lat="38.512867614626884" lon="-109.72153170034289">
        <ele>1826.5999755859375</ele>
        <time>2012-05-18T00:42:32Z</time>
      </trkpt>
      <trkpt lat="38.512657312676311" lon="-109.7215470392257">
        <ele>1827.800048828125</ele>
        <time>2012-05-18T00:42:37Z</time>
      </trkpt>
      <trkpt lat="38.512624790892005" lon="-109.72153530456126">
        <ele>1828</ele>
        <time>2012-05-18T00:42:38Z</time>
      </trkpt>
      <trkpt lat="38.512532589957118" lon="-109.72155592404306">
        <ele>1828.5999755859375</ele>
        <time>2012-05-18T00:42:41Z</time>
      </trkpt>
      <trkpt lat="38.512438545003533" lon="-109.72158693708479">
        <ele>1829</ele>
        <time>2012-05-18T00:42:44Z</time>
      </trkpt>
      <trkpt lat="38.512410381808877" lon="-109.72155760042369">
        <ele>1829.199951171875</ele>
        <time>2012-05-18T00:42:45Z</time>
      </trkpt>
      <trkpt lat="38.51234408095479" lon="-109.72141167148948">
        <ele>1829.5999755859375</ele>
        <time>2012-05-18T00:42:49Z</time>
      </trkpt>
      <trkpt lat="38.512330166995525" lon="-109.7213792335242">
        <ele>1829.5999755859375</ele>
        <time>2012-05-18T00:42:50Z</time>
      </trkpt>
      <trkpt lat="38.512256322428584" lon="-109.72133715637028">
        <ele>1829.800048828125</ele>
        <time>2012-05-18T00:42:53Z</time>
      </trkpt>
      <trkpt lat="38.512229081243277" lon="-109.72135492600501">
        <ele>1830</ele>
        <time>2012-05-18T00:42:54Z</time>
      </trkpt>
      <trkpt lat="38.512106789276004" lon="-109.7214656509459">
        <ele>1830.199951171875</ele>
        <time>2012-05-18T00:42:59Z</time>
      </trkpt>
      <trkpt lat="38.511935379356146" lon="-109.721500268206">
        <ele>1830.4000244140625</ele>
        <time>2012-05-18T00:43:04Z</time>
      </trkpt>
      <trkpt lat="38.51174108684063" lon="-109.72152038477361">
        <ele>1830.4000244140625</ele>
        <time>2012-05-18T00:43:09Z</time>
      </trkpt>
      <trkpt lat="38.511529862880707" lon="-109.7215972468257">
        <ele>1830.199951171875</ele>
        <time>2012-05-18T00:43:14Z</time>
      </trkpt>
      <trkpt lat="38.511486947536469" lon="-109.72157771699131">
        <ele>1830.4000244140625</ele>
        <time>2012-05-18T00:43:15Z</time>
      </trkpt>
      <trkpt lat="38.511317549273372" lon="-109.72163789905608">
        <ele>1830.199951171875</ele>
        <time>2012-05-18T00:43:19Z</time>
      </trkpt>
      <trkpt lat="38.511281758546829" lon="-109.72167871892452">
        <ele>1830.199951171875</ele>
        <time>2012-05-18T00:43:20Z</time>
      </trkpt>
      <trkpt lat="38.511180588975549" lon="-109.72178625874221">
        <ele>1829.800048828125</ele>
        <time>2012-05-18T00:43:23Z</time>
      </trkpt>
      <trkpt lat="38.510979758575559" lon="-109.72190125845373">
        <ele>1829.5999755859375</ele>
        <time>2012-05-18T00:43:28Z</time>
      </trkpt>
      <trkpt lat="38.510707598179579" lon="-109.72210410051048">
        <ele>1829.5999755859375</ele>
        <time>2012-05-18T00:43:35Z</time>
      </trkpt>
      <trkpt lat="38.510504420846701" lon="-109.72223167307675">
        <ele>1829.4000244140625</ele>
        <time>2012-05-18T00:43:40Z</time>
      </trkpt>
      <trkpt lat="38.510453207418323" lon="-109.72223184071481">
        <ele>1829.4000244140625</ele>
        <time>2012-05-18T00:43:41Z</time>
      </trkpt>
      <trkpt lat="38.510262100026011" lon="-109.7222637757659">
        <ele>1829.4000244140625</ele>
        <time>2012-05-18T00:43:45Z</time>
      </trkpt>
      <trkpt lat="38.51018582470715" lon="-109.72234105691314">
        <ele>1829.199951171875</ele>
        <time>2012-05-18T00:43:47Z</time>
      </trkpt>
      <trkpt lat="38.509987508878112" lon="-109.72257046960294">
        <ele>1828.800048828125</ele>
        <time>2012-05-18T00:43:52Z</time>
      </trkpt>
      <trkpt lat="38.509967811405659" lon="-109.72263283096254">
        <ele>1828.5999755859375</ele>
        <time>2012-05-18T00:43:53Z</time>
      </trkpt>
      <trkpt lat="38.509845938533545" lon="-109.72271505743265">
        <ele>1828.5999755859375</ele>
        <time>2012-05-18T00:43:56Z</time>
      </trkpt>
      <trkpt lat="38.50974652916193" lon="-109.72269603051245">
        <ele>1828.800048828125</ele>
        <time>2012-05-18T00:43:58Z</time>
      </trkpt>
      <trkpt lat="38.509693136438727" lon="-109.72271363250911">
        <ele>1829</ele>
        <time>2012-05-18T00:43:59Z</time>
      </trkpt>
      <trkpt lat="38.509651562198997" lon="-109.72276719287038">
        <ele>1828.800048828125</ele>
        <time>2012-05-18T00:44:00Z</time>
      </trkpt>
      <trkpt lat="38.509479817003012" lon="-109.72291018813848">
        <ele>1828.800048828125</ele>
        <time>2012-05-18T00:44:04Z</time>
      </trkpt>
      <trkpt lat="38.509435392916203" lon="-109.7229350823909">
        <ele>1828.800048828125</ele>
        <time>2012-05-18T00:44:05Z</time>
      </trkpt>
      <trkpt lat="38.509182762354612" lon="-109.72307564690709">
        <ele>1828.800048828125</ele>
        <time>2012-05-18T00:44:11Z</time>
      </trkpt>
      <trkpt lat="38.509114282205701" lon="-109.72322467714548">
        <ele>1828.4000244140625</ele>
        <time>2012-05-18T00:44:14Z</time>
      </trkpt>
      <trkpt lat="38.508937004953623" lon="-109.72336281090975">
        <ele>1828.199951171875</ele>
        <time>2012-05-18T00:44:18Z</time>
      </trkpt>
      <trkpt lat="38.508883360773325" lon="-109.72339290194213">
        <ele>1828</ele>
        <time>2012-05-18T00:44:19Z</time>
      </trkpt>
      <trkpt lat="38.508733157068491" lon="-109.72344797104597">
        <ele>1828</ele>
        <time>2012-05-18T00:44:22Z</time>
      </trkpt>
      <trkpt lat="38.508681859821081" lon="-109.72342592664063">
        <ele>1828.199951171875</ele>
        <time>2012-05-18T00:44:23Z</time>
      </trkpt>
      <trkpt lat="38.50855428725481" lon="-109.72337840124965">
        <ele>1828.5999755859375</ele>
        <time>2012-05-18T00:44:27Z</time>
      </trkpt>
      <trkpt lat="38.508539702743292" lon="-109.72337345592678">
        <ele>1828.5999755859375</ele>
        <time>2012-05-18T00:44:28Z</time>
      </trkpt>
      <trkpt lat="38.508475832641125" lon="-109.72342651337385">
        <ele>1828.5999755859375</ele>
        <time>2012-05-18T00:44:31Z</time>
      </trkpt>
      <trkpt lat="38.508449178189039" lon="-109.72345023415983">
        <ele>1828.5999755859375</ele>
        <time>2012-05-18T00:44:32Z</time>
      </trkpt>
      <trkpt lat="38.508274666965008" lon="-109.72360052168369">
        <ele>1828.4000244140625</ele>
        <time>2012-05-18T00:44:37Z</time>
      </trkpt>
      <trkpt lat="38.508029580116272" lon="-109.7236690018326">
        <ele>1828.5999755859375</ele>
        <time>2012-05-18T00:44:42Z</time>
      </trkpt>
      <trkpt lat="38.507775608450174" lon="-109.7237419243902">
        <ele>1828.5999755859375</ele>
        <time>2012-05-18T00:44:47Z</time>
      </trkpt>
      <trkpt lat="38.507745685055852" lon="-109.72379045560956">
        <ele>1828.5999755859375</ele>
        <time>2012-05-18T00:44:48Z</time>
      </trkpt>
      <trkpt lat="38.507669661194086" lon="-109.72382415086031">
        <ele>1828.4000244140625</ele>
        <time>2012-05-18T00:44:50Z</time>
      </trkpt>
      <trkpt lat="38.507620375603437" lon="-109.72380554303527">
        <ele>1828.5999755859375</ele>
        <time>2012-05-18T00:44:51Z</time>
      </trkpt>
      <trkpt lat="38.507500430569053" lon="-109.72394526936114">
        <ele>1828.199951171875</ele>
        <time>2012-05-18T00:44:54Z</time>
      </trkpt>
      <trkpt lat="38.507441589608788" lon="-109.72406018525362">
        <ele>1827.800048828125</ele>
        <time>2012-05-18T00:44:56Z</time>
      </trkpt>
      <trkpt lat="38.507402781397104" lon="-109.7240852471441">
        <ele>1827.800048828125</ele>
        <time>2012-05-18T00:44:57Z</time>
      </trkpt>
      <trkpt lat="38.507359363138676" lon="-109.72408767789602">
        <ele>1827.800048828125</ele>
        <time>2012-05-18T00:44:58Z</time>
      </trkpt>
      <trkpt lat="38.507215864956379" lon="-109.72408566623926">
        <ele>1827.800048828125</ele>
        <time>2012-05-18T00:45:01Z</time>
      </trkpt>
      <trkpt lat="38.507163226604462" lon="-109.72411391325295">
        <ele>1827.5999755859375</ele>
        <time>2012-05-18T00:45:02Z</time>
      </trkpt>
      <trkpt lat="38.507011933252215" lon="-109.72419211640954">
        <ele>1827.4000244140625</ele>
        <time>2012-05-18T00:45:05Z</time>
      </trkpt>
      <trkpt lat="38.506964994594455" lon="-109.72419982776046">
        <ele>1827.199951171875</ele>
        <time>2012-05-18T00:45:06Z</time>
      </trkpt>
      <trkpt lat="38.506854688748717" lon="-109.72426579333842">
        <ele>1827</ele>
        <time>2012-05-18T00:45:09Z</time>
      </trkpt>
      <trkpt lat="38.506792914122343" lon="-109.72430753521621">
        <ele>1826.800048828125</ele>
        <time>2012-05-18T00:45:11Z</time>
      </trkpt>
      <trkpt lat="38.506511952728033" lon="-109.72446754574776">
        <ele>1826.199951171875</ele>
        <time>2012-05-18T00:45:18Z</time>
      </trkpt>
      <trkpt lat="38.506402065977454" lon="-109.72449922934175">
        <ele>1825.800048828125</ele>
        <time>2012-05-18T00:45:20Z</time>
      </trkpt>
      <trkpt lat="38.50628069601953" lon="-109.72454088740051">
        <ele>1825.5999755859375</ele>
        <time>2012-05-18T00:45:22Z</time>
      </trkpt>
      <trkpt lat="38.505911724641919" lon="-109.72471984103322">
        <ele>1824.199951171875</ele>
        <time>2012-05-18T00:45:28Z</time>
      </trkpt>
      <trkpt lat="38.505843747407198" lon="-109.72471841610968">
        <ele>1824</ele>
        <time>2012-05-18T00:45:29Z</time>
      </trkpt>
      <trkpt lat="38.505779709666967" lon="-109.72466988489032">
        <ele>1824</ele>
        <time>2012-05-18T00:45:30Z</time>
      </trkpt>
      <trkpt lat="38.505648951977491" lon="-109.72449998371303">
        <ele>1824</ele>
        <time>2012-05-18T00:45:33Z</time>
      </trkpt>
      <trkpt lat="38.50556286983192" lon="-109.72441767342389">
        <ele>1824</ele>
        <time>2012-05-18T00:45:35Z</time>
      </trkpt>
      <trkpt lat="38.505431776866317" lon="-109.7243236284703">
        <ele>1823.800048828125</ele>
        <time>2012-05-18T00:45:38Z</time>
      </trkpt>
      <trkpt lat="38.505390789359808" lon="-109.72428808920085">
        <ele>1823.5999755859375</ele>
        <time>2012-05-18T00:45:39Z</time>
      </trkpt>
      <trkpt lat="38.505240501835942" lon="-109.72414375282824">
        <ele>1823.4000244140625</ele>
        <time>2012-05-18T00:45:43Z</time>
      </trkpt>
      <trkpt lat="38.50511385127902" lon="-109.72404451109469">
        <ele>1823.199951171875</ele>
        <time>2012-05-18T00:45:46Z</time>
      </trkpt>
      <trkpt lat="38.505030116066337" lon="-109.72397536039352">
        <ele>1823</ele>
        <time>2012-05-18T00:45:48Z</time>
      </trkpt>
      <trkpt lat="38.504902543500066" lon="-109.7238072194159">
        <ele>1823</ele>
        <time>2012-05-18T00:45:52Z</time>
      </trkpt>
      <trkpt lat="38.504691990092397" lon="-109.72354553639889">
        <ele>1822.5999755859375</ele>
        <time>2012-05-18T00:45:59Z</time>
      </trkpt>
      <trkpt lat="38.504538098350167" lon="-109.72341486252844">
        <ele>1822</ele>
        <time>2012-05-18T00:46:03Z</time>
      </trkpt>
      <trkpt lat="38.504486130550504" lon="-109.72340455278754">
        <ele>1821.800048828125</ele>
        <time>2012-05-18T00:46:04Z</time>
      </trkpt>
      <trkpt lat="38.504247330129147" lon="-109.72339156083763">
        <ele>1821</ele>
        <time>2012-05-18T00:46:09Z</time>
      </trkpt>
      <trkpt lat="38.504073238000274" lon="-109.72341125831008">
        <ele>1820.199951171875</ele>
        <time>2012-05-18T00:46:12Z</time>
      </trkpt>
      <trkpt lat="38.504016576334834" lon="-109.72344495356083">
        <ele>1820</ele>
        <time>2012-05-18T00:46:13Z</time>
      </trkpt>
      <trkpt lat="38.503757491707802" lon="-109.72355810925364">
        <ele>1819</ele>
        <time>2012-05-18T00:46:17Z</time>
      </trkpt>
      <trkpt lat="38.503709379583597" lon="-109.72363346256316">
        <ele>1818.800048828125</ele>
        <time>2012-05-18T00:46:18Z</time>
      </trkpt>
      <trkpt lat="38.503549117594957" lon="-109.72379079088569">
        <ele>1818.4000244140625</ele>
        <time>2012-05-18T00:46:21Z</time>
      </trkpt>
      <trkpt lat="38.503477452322841" lon="-109.72383328713477">
        <ele>1818.199951171875</ele>
        <time>2012-05-18T00:46:22Z</time>
      </trkpt>
      <trkpt lat="38.503194227814674" lon="-109.72398994490504">
        <ele>1817</ele>
        <time>2012-05-18T00:46:26Z</time>
      </trkpt>
      <trkpt lat="38.503167992457747" lon="-109.72405188716948">
        <ele>1816.800048828125</ele>
        <time>2012-05-18T00:46:27Z</time>
      </trkpt>
      <trkpt lat="38.503148630261421" lon="-109.72422237507999">
        <ele>1816.5999755859375</ele>
        <time>2012-05-18T00:46:30Z</time>
      </trkpt>
      <trkpt lat="38.503106217831373" lon="-109.72433594986796">
        <ele>1816.199951171875</ele>
        <time>2012-05-18T00:46:32Z</time>
      </trkpt>
      <trkpt lat="38.503094986081123" lon="-109.72440023906529">
        <ele>1816</ele>
        <time>2012-05-18T00:46:33Z</time>
      </trkpt>
      <trkpt lat="38.503076042979956" lon="-109.72452772781253">
        <ele>1815.5999755859375</ele>
        <time>2012-05-18T00:46:35Z</time>
      </trkpt>
      <trkpt lat="38.502922654151917" lon="-109.72462764009833">
        <ele>1814.199951171875</ele>
        <time>2012-05-18T00:46:38Z</time>
      </trkpt>
      <trkpt lat="38.502759207040071" lon="-109.72481665201485">
        <ele>1812.5999755859375</ele>
        <time>2012-05-18T00:46:42Z</time>
      </trkpt>
      <trkpt lat="38.502715704962611" lon="-109.72488588653505">
        <ele>1812.199951171875</ele>
        <time>2012-05-18T00:46:43Z</time>
      </trkpt>
      <trkpt lat="38.502687709406018" lon="-109.72495126537979">
        <ele>1811.800048828125</ele>
        <time>2012-05-18T00:46:44Z</time>
      </trkpt>
      <trkpt lat="38.502623755484819" lon="-109.7250784188509">
        <ele>1811.199951171875</ele>
        <time>2012-05-18T00:46:46Z</time>
      </trkpt>
      <trkpt lat="38.502569356933236" lon="-109.72524194978178">
        <ele>1811</ele>
        <time>2012-05-18T00:46:49Z</time>
      </trkpt>
      <trkpt lat="38.502474473789334" lon="-109.72529056482017">
        <ele>1810.4000244140625</ele>
        <time>2012-05-18T00:46:51Z</time>
      </trkpt>
      <trkpt lat="38.502448322251439" lon="-109.7253493219614">
        <ele>1810.199951171875</ele>
        <time>2012-05-18T00:46:52Z</time>
      </trkpt>
      <trkpt lat="38.502389900386333" lon="-109.72548385150731">
        <ele>1810</ele>
        <time>2012-05-18T00:46:55Z</time>
      </trkpt>
      <trkpt lat="38.502268781885505" lon="-109.72564629279077">
        <ele>1809.5999755859375</ele>
        <time>2012-05-18T00:46:59Z</time>
      </trkpt>
      <trkpt lat="38.502122182399035" lon="-109.72571569494903">
        <ele>1809</ele>
        <time>2012-05-18T00:47:02Z</time>
      </trkpt>
      <trkpt lat="38.502009697258472" lon="-109.7257327940315">
        <ele>1808.5999755859375</ele>
        <time>2012-05-18T00:47:04Z</time>
      </trkpt>
      <trkpt lat="38.501887153834105" lon="-109.72576179541647">
        <ele>1808.199951171875</ele>
        <time>2012-05-18T00:47:06Z</time>
      </trkpt>
      <trkpt lat="38.501741392537951" lon="-109.72589171491563">
        <ele>1808.199951171875</ele>
        <time>2012-05-18T00:47:09Z</time>
      </trkpt>
      <trkpt lat="38.501697052270174" lon="-109.72594141960144">
        <ele>1808.199951171875</ele>
        <time>2012-05-18T00:47:10Z</time>
      </trkpt>
      <trkpt lat="38.501581214368343" lon="-109.72600059583783">
        <ele>1808</ele>
        <time>2012-05-18T00:47:12Z</time>
      </trkpt>
      <trkpt lat="38.501510303467512" lon="-109.72600512206554">
        <ele>1807.800048828125</ele>
        <time>2012-05-18T00:47:13Z</time>
      </trkpt>
      <trkpt lat="38.501328835263848" lon="-109.72611492499709">
        <ele>1807.4000244140625</ele>
        <time>2012-05-18T00:47:16Z</time>
      </trkpt>
      <trkpt lat="38.501190282404423" lon="-109.72615130245686">
        <ele>1807</ele>
        <time>2012-05-18T00:47:18Z</time>
      </trkpt>
      <trkpt lat="38.501126747578382" lon="-109.72619254142046">
        <ele>1806.800048828125</ele>
        <time>2012-05-18T00:47:19Z</time>
      </trkpt>
      <trkpt lat="38.501075282692909" lon="-109.72624191083014">
        <ele>1806.800048828125</ele>
        <time>2012-05-18T00:47:20Z</time>
      </trkpt>
      <trkpt lat="38.500894233584404" lon="-109.72636537626386">
        <ele>1806</ele>
        <time>2012-05-18T00:47:23Z</time>
      </trkpt>
      <trkpt lat="38.500830363482237" lon="-109.72639186307788">
        <ele>1805.800048828125</ele>
        <time>2012-05-18T00:47:24Z</time>
      </trkpt>
      <trkpt lat="38.500774372369051" lon="-109.72643092274666">
        <ele>1805.4000244140625</ele>
        <time>2012-05-18T00:47:25Z</time>
      </trkpt>
      <trkpt lat="38.500605979934335" lon="-109.72653192467988">
        <ele>1804.5999755859375</ele>
        <time>2012-05-18T00:47:28Z</time>
      </trkpt>
      <trkpt lat="38.500440772622824" lon="-109.7266186773777">
        <ele>1803.800048828125</ele>
        <time>2012-05-18T00:47:31Z</time>
      </trkpt>
      <trkpt lat="38.500320157036185" lon="-109.72662303596735">
        <ele>1803</ele>
        <time>2012-05-18T00:47:33Z</time>
      </trkpt>
      <trkpt lat="38.500158805400133" lon="-109.72649881616235">
        <ele>1801.800048828125</ele>
        <time>2012-05-18T00:47:36Z</time>
      </trkpt>
      <trkpt lat="38.499905169010162" lon="-109.72636369988322">
        <ele>1801.5999755859375</ele>
        <time>2012-05-18T00:47:40Z</time>
      </trkpt>
      <trkpt lat="38.499841801822186" lon="-109.7263562399894">
        <ele>1801.5999755859375</ele>
        <time>2012-05-18T00:47:41Z</time>
      </trkpt>
      <trkpt lat="38.499719090759754" lon="-109.72627971321344">
        <ele>1802.800048828125</ele>
        <time>2012-05-18T00:47:43Z</time>
      </trkpt>
      <trkpt lat="38.499457156285644" lon="-109.72619463689625">
        <ele>1805.5999755859375</ele>
        <time>2012-05-18T00:47:47Z</time>
      </trkpt>
      <trkpt lat="38.49935338832438" lon="-109.72610461525619">
        <ele>1806.800048828125</ele>
        <time>2012-05-18T00:47:49Z</time>
      </trkpt>
      <trkpt lat="38.499294966459274" lon="-109.72607854753733">
        <ele>1807.4000244140625</ele>
        <time>2012-05-18T00:47:50Z</time>
      </trkpt>
      <trkpt lat="38.49923025816679" lon="-109.72607100382447">
        <ele>1808.4000244140625</ele>
        <time>2012-05-18T00:47:51Z</time>
      </trkpt>
      <trkpt lat="38.499101344496012" lon="-109.72605985589325">
        <ele>1810</ele>
        <time>2012-05-18T00:47:53Z</time>
      </trkpt>
      <trkpt lat="38.498974358662963" lon="-109.72608868964016">
        <ele>1810.800048828125</ele>
        <time>2012-05-18T00:47:55Z</time>
      </trkpt>
      <trkpt lat="38.49884619936347" lon="-109.72610997967422">
        <ele>1810.5999755859375</ele>
        <time>2012-05-18T00:47:57Z</time>
      </trkpt>
      <trkpt lat="38.498650230467319" lon="-109.72610478289425">
        <ele>1810</ele>
        <time>2012-05-18T00:48:00Z</time>
      </trkpt>
      <trkpt lat="38.498586444184184" lon="-109.7261403221637">
        <ele>1809.4000244140625</ele>
        <time>2012-05-18T00:48:01Z</time>
      </trkpt>
      <trkpt lat="38.498466331511736" lon="-109.72620829939842">
        <ele>1808.4000244140625</ele>
        <time>2012-05-18T00:48:03Z</time>
      </trkpt>
      <trkpt lat="38.497958471998572" lon="-109.7263599280268">
        <ele>1805.199951171875</ele>
        <time>2012-05-18T00:48:11Z</time>
      </trkpt>
      <trkpt lat="38.497894685715437" lon="-109.72636881284416">
        <ele>1804.800048828125</ele>
        <time>2012-05-18T00:48:12Z</time>
      </trkpt>
      <trkpt lat="38.497829977422953" lon="-109.72639035433531">
        <ele>1804.199951171875</ele>
        <time>2012-05-18T00:48:13Z</time>
      </trkpt>
      <trkpt lat="38.497716821730137" lon="-109.72647869959474">
        <ele>1803.199951171875</ele>
        <time>2012-05-18T00:48:15Z</time>
      </trkpt>
      <trkpt lat="38.497282639145851" lon="-109.72687415778637">
        <ele>1800.4000244140625</ele>
        <time>2012-05-18T00:48:23Z</time>
      </trkpt>
      <trkpt lat="38.497165124863386" lon="-109.72694959491491">
        <ele>1800</ele>
        <time>2012-05-18T00:48:25Z</time>
      </trkpt>
      <trkpt lat="38.497043671086431" lon="-109.72701287828386">
        <ele>1799.5999755859375</ele>
        <time>2012-05-18T00:48:27Z</time>
      </trkpt>
      <trkpt lat="38.496985752135515" lon="-109.72705177031457">
        <ele>1799.4000244140625</ele>
        <time>2012-05-18T00:48:28Z</time>
      </trkpt>
      <trkpt lat="38.496948955580592" lon="-109.72711890935898">
        <ele>1799.199951171875</ele>
        <time>2012-05-18T00:48:29Z</time>
      </trkpt>
      <trkpt lat="38.496876955032349" lon="-109.72723265178502">
        <ele>1799.199951171875</ele>
        <time>2012-05-18T00:48:31Z</time>
      </trkpt>
      <trkpt lat="38.496653074398637" lon="-109.72747036255896">
        <ele>1799</ele>
        <time>2012-05-18T00:48:36Z</time>
      </trkpt>
      <trkpt lat="38.496605884283781" lon="-109.72753599286079">
        <ele>1799.199951171875</ele>
        <time>2012-05-18T00:48:37Z</time>
      </trkpt>
      <trkpt lat="38.496472612023354" lon="-109.72769994288683">
        <ele>1799.5999755859375</ele>
        <time>2012-05-18T00:48:40Z</time>
      </trkpt>
      <trkpt lat="38.496433468535542" lon="-109.72773757763207">
        <ele>1799.800048828125</ele>
        <time>2012-05-18T00:48:41Z</time>
      </trkpt>
      <trkpt lat="38.496372196823359" lon="-109.72782013937831">
        <ele>1800</ele>
        <time>2012-05-18T00:48:43Z</time>
      </trkpt>
      <trkpt lat="38.496351661160588" lon="-109.7278671618551">
        <ele>1800.199951171875</ele>
        <time>2012-05-18T00:48:44Z</time>
      </trkpt>
      <trkpt lat="38.49627404473722" lon="-109.72797587513924">
        <ele>1800.800048828125</ele>
        <time>2012-05-18T00:48:47Z</time>
      </trkpt>
      <trkpt lat="38.496238170191646" lon="-109.72799993120134">
        <ele>1800.800048828125</ele>
        <time>2012-05-18T00:48:48Z</time>
      </trkpt>
      <trkpt lat="38.496135324239731" lon="-109.72807025536895">
        <ele>1801.5999755859375</ele>
        <time>2012-05-18T00:48:51Z</time>
      </trkpt>
      <trkpt lat="38.496064245700836" lon="-109.72808425314724">
        <ele>1801.800048828125</ele>
        <time>2012-05-18T00:48:53Z</time>
      </trkpt>
      <trkpt lat="38.495964081957936" lon="-109.7281351312995">
        <ele>1802.5999755859375</ele>
        <time>2012-05-18T00:48:57Z</time>
      </trkpt>
      <trkpt lat="38.495877245441079" lon="-109.72822708077729">
        <ele>1803.199951171875</ele>
        <time>2012-05-18T00:49:02Z</time>
      </trkpt>
      <trkpt lat="38.495682030916214" lon="-109.72839823924005">
        <ele>1804.199951171875</ele>
        <time>2012-05-18T00:49:11Z</time>
      </trkpt>
      <trkpt lat="38.495555212721229" lon="-109.72852053120732">
        <ele>1804.5999755859375</ele>
        <time>2012-05-18T00:49:17Z</time>
      </trkpt>
      <trkpt lat="38.495433256030083" lon="-109.72865682095289">
        <ele>1804.5999755859375</ele>
        <time>2012-05-18T00:49:23Z</time>
      </trkpt>
      <trkpt lat="38.495241142809391" lon="-109.72882328554988">
        <ele>1804.5999755859375</ele>
        <time>2012-05-18T00:49:27Z</time>
      </trkpt>
      <trkpt lat="38.495128573849797" lon="-109.72892504185438">
        <ele>1804.4000244140625</ele>
        <time>2012-05-18T00:49:29Z</time>
      </trkpt>
      <trkpt lat="38.49505347199738" lon="-109.72907365299761">
        <ele>1804.5999755859375</ele>
        <time>2012-05-18T00:49:31Z</time>
      </trkpt>
      <trkpt lat="38.494925815612078" lon="-109.7292697057128">
        <ele>1804.5999755859375</ele>
        <time>2012-05-18T00:49:34Z</time>
      </trkpt>
      <trkpt lat="38.494867729023099" lon="-109.72931002266705">
        <ele>1804.4000244140625</ele>
        <time>2012-05-18T00:49:35Z</time>
      </trkpt>
      <trkpt lat="38.494749292731285" lon="-109.72936316393316">
        <ele>1804.199951171875</ele>
        <time>2012-05-18T00:49:37Z</time>
      </trkpt>
      <trkpt lat="38.4945223107934" lon="-109.72950548864901">
        <ele>1803</ele>
        <time>2012-05-18T00:49:41Z</time>
      </trkpt>
      <trkpt lat="38.494359534233809" lon="-109.72955829463899">
        <ele>1801.800048828125</ele>
        <time>2012-05-18T00:49:44Z</time>
      </trkpt>
      <trkpt lat="38.494209162890911" lon="-109.72951412200928">
        <ele>1800.5999755859375</ele>
        <time>2012-05-18T00:49:47Z</time>
      </trkpt>
      <trkpt lat="38.494162727147341" lon="-109.72950498573482">
        <ele>1800</ele>
        <time>2012-05-18T00:49:48Z</time>
      </trkpt>
      <trkpt lat="38.49404931999743" lon="-109.72956097684801">
        <ele>1799</ele>
        <time>2012-05-18T00:49:51Z</time>
      </trkpt>
      <trkpt lat="38.494014702737331" lon="-109.72958880476654">
        <ele>1798.5999755859375</ele>
        <time>2012-05-18T00:49:52Z</time>
      </trkpt>
      <trkpt lat="38.493989640846848" lon="-109.72963540814817">
        <ele>1798.4000244140625</ele>
        <time>2012-05-18T00:49:53Z</time>
      </trkpt>
      <trkpt lat="38.493962651118636" lon="-109.72973397932947">
        <ele>1798</ele>
        <time>2012-05-18T00:49:55Z</time>
      </trkpt>
      <trkpt lat="38.493951503187418" lon="-109.7298289462924">
        <ele>1797.800048828125</ele>
        <time>2012-05-18T00:49:57Z</time>
      </trkpt>
      <trkpt lat="38.493951838463545" lon="-109.72991930320859">
        <ele>1797.5999755859375</ele>
        <time>2012-05-18T00:49:59Z</time>
      </trkpt>
      <trkpt lat="38.493955861777067" lon="-109.72996012307703">
        <ele>1797.5999755859375</ele>
        <time>2012-05-18T00:50:00Z</time>
      </trkpt>
      <trkpt lat="38.494024341925979" lon="-109.73010345362127">
        <ele>1798</ele>
        <time>2012-05-18T00:50:04Z</time>
      </trkpt>
      <trkpt lat="38.493984024971724" lon="-109.73023010417819">
        <ele>1797.800048828125</ele>
        <time>2012-05-18T00:50:07Z</time>
      </trkpt>
      <trkpt lat="38.493960136547685" lon="-109.73027033731341">
        <ele>1797.800048828125</ele>
        <time>2012-05-18T00:50:08Z</time>
      </trkpt>
      <trkpt lat="38.493809597566724" lon="-109.73058214411139">
        <ele>1797.4000244140625</ele>
        <time>2012-05-18T00:50:15Z</time>
      </trkpt>
      <trkpt lat="38.4937659278512" lon="-109.73079655319452">
        <ele>1797.800048828125</ele>
        <time>2012-05-18T00:50:20Z</time>
      </trkpt>
      <trkpt lat="38.493734076619148" lon="-109.73109536804259">
        <ele>1798.800048828125</ele>
        <time>2012-05-18T00:50:26Z</time>
      </trkpt>
      <trkpt lat="38.493742290884256" lon="-109.73139317706227">
        <ele>1800.199951171875</ele>
        <time>2012-05-18T00:50:32Z</time>
      </trkpt>
      <trkpt lat="38.493675990030169" lon="-109.73175100050867">
        <ele>1801.800048828125</ele>
        <time>2012-05-18T00:50:40Z</time>
      </trkpt>
      <trkpt lat="38.49353140220046" lon="-109.73199139349163">
        <ele>1803.199951171875</ele>
        <time>2012-05-18T00:50:47Z</time>
      </trkpt>
      <trkpt lat="38.49339016713202" lon="-109.73234921693802">
        <ele>1804.5999755859375</ele>
        <time>2012-05-18T00:50:56Z</time>
      </trkpt>
      <trkpt lat="38.493370721116662" lon="-109.73252221941948">
        <ele>1804.800048828125</ele>
        <time>2012-05-18T00:51:00Z</time>
      </trkpt>
      <trkpt lat="38.493316154927015" lon="-109.73276764154434">
        <ele>1805</ele>
        <time>2012-05-18T00:51:06Z</time>
      </trkpt>
      <trkpt lat="38.493192940950394" lon="-109.73283075727522">
        <ele>1805.4000244140625</ele>
        <time>2012-05-18T00:51:10Z</time>
      </trkpt>
      <trkpt lat="38.493014490231872" lon="-109.73299127072096">
        <ele>1805.800048828125</ele>
        <time>2012-05-18T00:51:16Z</time>
      </trkpt>
      <trkpt lat="38.492789268493652" lon="-109.73320366814733">
        <ele>1806</ele>
        <time>2012-05-18T00:51:22Z</time>
      </trkpt>
      <trkpt lat="38.492715591564775" lon="-109.73326795734465">
        <ele>1806</ele>
        <time>2012-05-18T00:51:24Z</time>
      </trkpt>
      <trkpt lat="38.492642920464277" lon="-109.73341422155499">
        <ele>1805.800048828125</ele>
        <time>2012-05-18T00:51:27Z</time>
      </trkpt>
      <trkpt lat="38.492626156657934" lon="-109.73346862010658">
        <ele>1805.5999755859375</ele>
        <time>2012-05-18T00:51:28Z</time>
      </trkpt>
      <trkpt lat="38.492593299597502" lon="-109.73358479328454">
        <ele>1805.199951171875</ele>
        <time>2012-05-18T00:51:30Z</time>
      </trkpt>
      <trkpt lat="38.492567064240575" lon="-109.73364287987351">
        <ele>1805</ele>
        <time>2012-05-18T00:51:31Z</time>
      </trkpt>
      <trkpt lat="38.49246664904058" lon="-109.73380909301341">
        <ele>1804.5999755859375</ele>
        <time>2012-05-18T00:51:34Z</time>
      </trkpt>
      <trkpt lat="38.492434546351433" lon="-109.73386131227016">
        <ele>1804.4000244140625</ele>
        <time>2012-05-18T00:51:35Z</time>
      </trkpt>
      <trkpt lat="38.492393977940083" lon="-109.73390355706215">
        <ele>1804.199951171875</ele>
        <time>2012-05-18T00:51:36Z</time>
      </trkpt>
      <trkpt lat="38.492279900237918" lon="-109.73401729948819">
        <ele>1804</ele>
        <time>2012-05-18T00:51:39Z</time>
      </trkpt>
      <trkpt lat="38.492174874991179" lon="-109.73421268165112">
        <ele>1803.4000244140625</ele>
        <time>2012-05-18T00:51:43Z</time>
      </trkpt>
      <trkpt lat="38.492147717624903" lon="-109.73425475880504">
        <ele>1803.199951171875</ele>
        <time>2012-05-18T00:51:44Z</time>
      </trkpt>
      <trkpt lat="38.49212659522891" lon="-109.73430479876697">
        <ele>1803.199951171875</ele>
        <time>2012-05-18T00:51:45Z</time>
      </trkpt>
      <trkpt lat="38.492132797837257" lon="-109.73441493697464">
        <ele>1802.800048828125</ele>
        <time>2012-05-18T00:51:47Z</time>
      </trkpt>
      <trkpt lat="38.492119805887341" lon="-109.73460922949016">
        <ele>1802.199951171875</ele>
        <time>2012-05-18T00:51:51Z</time>
      </trkpt>
      <trkpt lat="38.492036070674658" lon="-109.73472506739199">
        <ele>1801.5999755859375</ele>
        <time>2012-05-18T00:51:54Z</time>
      </trkpt>
      <trkpt lat="38.49199952557683" lon="-109.73475742153823">
        <ele>1801.5999755859375</ele>
        <time>2012-05-18T00:51:55Z</time>
      </trkpt>
      <trkpt lat="38.491923753172159" lon="-109.73482699133456">
        <ele>1801.199951171875</ele>
        <time>2012-05-18T00:51:57Z</time>
      </trkpt>
      <trkpt lat="38.491845969110727" lon="-109.73487703129649">
        <ele>1801</ele>
        <time>2012-05-18T00:51:59Z</time>
      </trkpt>
      <trkpt lat="38.491725604981184" lon="-109.73484132438898">
        <ele>1801</ele>
        <time>2012-05-18T00:52:02Z</time>
      </trkpt>
      <trkpt lat="38.491648072376847" lon="-109.73481743596494">
        <ele>1800.800048828125</ele>
        <time>2012-05-18T00:52:04Z</time>
      </trkpt>
      <trkpt lat="38.491524690762162" lon="-109.73483134992421">
        <ele>1800.5999755859375</ele>
        <time>2012-05-18T00:52:07Z</time>
      </trkpt>
      <trkpt lat="38.491455120965838" lon="-109.73495506681502">
        <ele>1800.4000244140625</ele>
        <time>2012-05-18T00:52:10Z</time>
      </trkpt>
      <trkpt lat="38.491373062133789" lon="-109.73505590111017">
        <ele>1800.199951171875</ele>
        <time>2012-05-18T00:52:13Z</time>
      </trkpt>
      <trkpt lat="38.491293601691723" lon="-109.73517936654389">
        <ele>1800</ele>
        <time>2012-05-18T00:52:16Z</time>
      </trkpt>
      <trkpt lat="38.491180948913097" lon="-109.73524776287377">
        <ele>1799.5999755859375</ele>
        <time>2012-05-18T00:52:19Z</time>
      </trkpt>
      <trkpt lat="38.491133926436305" lon="-109.7353548835963">
        <ele>1799.4000244140625</ele>
        <time>2012-05-18T00:52:21Z</time>
      </trkpt>
      <trkpt lat="38.491039797663689" lon="-109.73549176007509">
        <ele>1799.199951171875</ele>
        <time>2012-05-18T00:52:24Z</time>
      </trkpt>
      <trkpt lat="38.490863526239991" lon="-109.73551849834621">
        <ele>1798.800048828125</ele>
        <time>2012-05-18T00:52:28Z</time>
      </trkpt>
      <trkpt lat="38.49082488566637" lon="-109.7355208452791">
        <ele>1798.800048828125</ele>
        <time>2012-05-18T00:52:29Z</time>
      </trkpt>
      <trkpt lat="38.490757495164871" lon="-109.73553945310414">
        <ele>1798.5999755859375</ele>
        <time>2012-05-18T00:52:31Z</time>
      </trkpt>
      <trkpt lat="38.490732600912452" lon="-109.73557356745005">
        <ele>1798.5999755859375</ele>
        <time>2012-05-18T00:52:32Z</time>
      </trkpt>
      <trkpt lat="38.490670658648014" lon="-109.73570440895855">
        <ele>1798.4000244140625</ele>
        <time>2012-05-18T00:52:35Z</time>
      </trkpt>
      <trkpt lat="38.490644507110119" lon="-109.73574120551348">
        <ele>1798.4000244140625</ele>
        <time>2012-05-18T00:52:36Z</time>
      </trkpt>
      <trkpt lat="38.490521796047688" lon="-109.7358110267669">
        <ele>1798.199951171875</ele>
        <time>2012-05-18T00:52:40Z</time>
      </trkpt>
      <trkpt lat="38.490414507687092" lon="-109.73587892018259">
        <ele>1798.199951171875</ele>
        <time>2012-05-18T00:52:44Z</time>
      </trkpt>
      <trkpt lat="38.490257849916816" lon="-109.73587942309678">
        <ele>1798.199951171875</ele>
        <time>2012-05-18T00:52:49Z</time>
      </trkpt>
      <trkpt lat="38.49022725597024" lon="-109.73588981665671">
        <ele>1798.199951171875</ele>
        <time>2012-05-18T00:52:50Z</time>
      </trkpt>
      <trkpt lat="38.490074286237359" lon="-109.73591538146138">
        <ele>1798.199951171875</ele>
        <time>2012-05-18T00:52:55Z</time>
      </trkpt>
      <trkpt lat="38.489859793335199" lon="-109.73596030846238">
        <ele>1798.800048828125</ele>
        <time>2012-05-18T00:53:02Z</time>
      </trkpt>
      <trkpt lat="38.489697687327862" lon="-109.73609190434217">
        <ele>1800.4000244140625</ele>
        <time>2012-05-18T00:53:08Z</time>
      </trkpt>
      <trkpt lat="38.489512279629707" lon="-109.73611210472882">
        <ele>1802.199951171875</ele>
        <time>2012-05-18T00:53:14Z</time>
      </trkpt>
      <trkpt lat="38.489376325160265" lon="-109.73611780442297">
        <ele>1804.199951171875</ele>
        <time>2012-05-18T00:53:19Z</time>
      </trkpt>
      <trkpt lat="38.489244561642408" lon="-109.73619416356087">
        <ele>1805.4000244140625</ele>
        <time>2012-05-18T00:53:24Z</time>
      </trkpt>
      <trkpt lat="38.489136938005686" lon="-109.73625769838691">
        <ele>1805.800048828125</ele>
        <time>2012-05-18T00:53:28Z</time>
      </trkpt>
      <trkpt lat="38.488941974937916" lon="-109.7362045571208">
        <ele>1806.4000244140625</ele>
        <time>2012-05-18T00:53:35Z</time>
      </trkpt>
      <trkpt lat="38.488869974389672" lon="-109.73616868257523">
        <ele>1806.4000244140625</ele>
        <time>2012-05-18T00:53:38Z</time>
      </trkpt>
    </trkseg>
  </trk>

</gpx>
